Wetterdaten: Dienstag, 03.01.2023
Datum Zeit Temp. Aussen Temp. o. S. Temp +5cm Feuchte Auss Luftdruck Regen Sonnenschein Regendauer Solar Windben Empfang
03.01.2023 00:00 7,1 C 6,1 C 3,3 C 96 % 1025,9 hPa 0,0 l/m 0 min 0 min 0 W/m 0,0 km/h (0 Bft) 94,29 %
03.01.2023 00:02 7,1 C 6,1 C 3,3 C 96 % 1025,8 hPa 0,0 l/m 0 min 0 min 0 W/m 0,0 km/h (0 Bft) 91,43 %
03.01.2023 00:04 7,1 C 6,1 C 3,3 C 96 % 1025,9 hPa 0,0 l/m 0 min 0 min 0 W/m 0,0 km/h (0 Bft) 93,88 %
03.01.2023 00:07 7,0 C 6,1 C 3,9 C 96 % 1025,9 hPa 0,0 l/m 0 min 0 min 0 W/m 0,0 km/h (0 Bft) 98,57 %
03.01.2023 00:10 7,1 C 6,1 C 3,9 C 96 % 1026,0 hPa 0,0 l/m 0 min 0 min 0 W/m 0,0 km/h (0 Bft) 100,00 %
03.01.2023 00:12 7,1 C 6,1 C 3,9 C 96 % 1025,9 hPa 0,0 l/m 0 min 0 min 0 W/m 0,0 km/h (0 Bft) 100,00 %
03.01.2023 00:14 7,0 C 6,1 C 3,9 C 96 % 1025,9 hPa 0,0 l/m 0 min 0 min 0 W/m 0,0 km/h (0 Bft) 95,74 %
03.01.2023 00:16 7,0 C 6,1 C 3,9 C 96 % 1026,0 hPa 0,0 l/m 0 min 0 min 0 W/m 0,0 km/h (0 Bft) 95,83 %
03.01.2023 00:18 7,0 C 6,1 C 3,3 C 96 % 1026,0 hPa 0,0 l/m 0 min 0 min 0 W/m 0,0 km/h (0 Bft) 97,87 %
03.01.2023 00:20 7,0 C 6,1 C 3,9 C 96 % 1026,0 hPa 0,0 l/m 0 min 0 min 0 W/m 0,0 km/h (0 Bft) 95,65 %
03.01.2023 00:22 7,0 C 6,1 C 3,9 C 96 % 1026,0 hPa 0,0 l/m 0 min 0 min 0 W/m 0,0 km/h (0 Bft) 97,87 %
03.01.2023 00:24 7,0 C 6,1 C 3,9 C 96 % 1026,0 hPa 0,0 l/m 0 min 0 min 0 W/m 0,0 km/h (0 Bft) 97,87 %
03.01.2023 00:26 7,0 C 6,1 C 3,9 C 96 % 1026,0 hPa 0,0 l/m 0 min 0 min 0 W/m 0,0 km/h (0 Bft) 100,00 %
03.01.2023 00:28 7,1 C 6,1 C 3,9 C 96 % 1026,0 hPa 0,0 l/m 0 min 0 min 0 W/m 0,0 km/h (0 Bft) 97,87 %
03.01.2023 00:30 7,1 C 6,1 C 3,9 C 96 % 1026,0 hPa 0,0 l/m 0 min 0 min 0 W/m 0,0 km/h (0 Bft) 100,00 %
03.01.2023 00:32 7,0 C 6,1 C 3,9 C 96 % 1026,1 hPa 0,0 l/m 0 min 0 min 0 W/m 6,4 km/h (2 Bft) 100,00 %
03.01.2023 00:34 7,0 C 6,1 C 3,9 C 96 % 1026,1 hPa 0,0 l/m 0 min 0 min 0 W/m 6,4 km/h (2 Bft) 100,00 %
03.01.2023 00:36 7,0 C 6,1 C 3,3 C 96 % 1026,1 hPa 0,0 l/m 0 min 0 min 0 W/m 6,4 km/h (2 Bft) 100,00 %
03.01.2023 00:38 7,0 C 6,1 C 3,9 C 96 % 1026,1 hPa 0,0 l/m 0 min 0 min 0 W/m 3,2 km/h (1 Bft) 100,00 %
03.01.2023 00:40 7,0 C 6,1 C 3,9 C 96 % 1026,1 hPa 0,0 l/m 0 min 0 min 0 W/m 0,0 km/h (0 Bft) 100,00 %
03.01.2023 00:42 7,0 C 6,1 C 3,3 C 96 % 1026,1 hPa 0,0 l/m 0 min 0 min 0 W/m 3,2 km/h (1 Bft) 100,00 %
03.01.2023 00:44 7,0 C 6,1 C 3,3 C 96 % 1026,1 hPa 0,0 l/m 0 min 0 min 0 W/m 6,4 km/h (2 Bft) 100,00 %
03.01.2023 00:46 6,9 C 6,1 C 3,9 C 96 % 1026,1 hPa 0,0 l/m 0 min 0 min 0 W/m 6,4 km/h (2 Bft) 100,00 %
03.01.2023 00:48 7,0 C 6,1 C 3,9 C 96 % 1026,2 hPa 0,0 l/m 0 min 0 min 0 W/m 3,2 km/h (1 Bft) 97,87 %
03.01.2023 00:50 7,0 C 6,7 C 3,9 C 96 % 1026,2 hPa 0,0 l/m 0 min 0 min 0 W/m 0,0 km/h (0 Bft) 97,87 %
03.01.2023 00:52 7,0 C 6,7 C 3,9 C 96 % 1026,2 hPa 0,0 l/m 0 min 0 min 0 W/m 3,2 km/h (1 Bft) 97,87 %
03.01.2023 00:54 7,0 C 6,7 C 3,9 C 96 % 1026,2 hPa 0,0 l/m 0 min 0 min 0 W/m 3,2 km/h (1 Bft) 100,00 %
03.01.2023 00:56 7,0 C 6,7 C 3,9 C 96 % 1026,1 hPa 0,0 l/m 0 min 0 min 0 W/m 0,0 km/h (0 Bft) 100,00 %
03.01.2023 00:58 7,0 C 6,1 C 3,9 C 96 % 1026,1 hPa 0,0 l/m 0 min 0 min 0 W/m 3,2 km/h (1 Bft) 100,00 %
03.01.2023 01:00 7,0 C 6,1 C 3,9 C 96 % 1026,1 hPa 0,0 l/m 0 min 0 min 0 W/m 3,2 km/h (1 Bft) 100,00 %
03.01.2023 01:02 7,0 C 6,1 C 3,3 C 96 % 1026,1 hPa 0,0 l/m 0 min 0 min 0 W/m 3,2 km/h (1 Bft) 100,00 %
03.01.2023 01:04 7,0 C 6,1 C 3,3 C 96 % 1026,2 hPa 0,0 l/m 0 min 0 min 0 W/m 12,9 km/h (3 Bft) 100,00 %
03.01.2023 01:06 6,9 C 6,1 C 3,3 C 96 % 1026,2 hPa 0,0 l/m 0 min 0 min 0 W/m 6,4 km/h (2 Bft) 100,00 %
03.01.2023 01:08 6,9 C 6,1 C 3,3 C 96 % 1026,2 hPa 0,0 l/m 0 min 0 min 0 W/m 6,4 km/h (2 Bft) 100,00 %
03.01.2023 01:10 6,9 C 6,1 C 3,3 C 96 % 1026,1 hPa 0,0 l/m 0 min 0 min 0 W/m 3,2 km/h (1 Bft) 100,00 %
03.01.2023 01:12 6,9 C 6,1 C 3,3 C 96 % 1026,2 hPa 0,0 l/m 0 min 0 min 0 W/m 6,4 km/h (2 Bft) 100,00 %
03.01.2023 01:14 6,9 C 6,1 C 3,3 C 96 % 1026,2 hPa 0,0 l/m 0 min 0 min 0 W/m 6,4 km/h (2 Bft) 100,00 %
03.01.2023 01:16 6,9 C 6,1 C 3,3 C 96 % 1026,2 hPa 0,0 l/m 0 min 0 min 0 W/m 6,4 km/h (2 Bft) 100,00 %
03.01.2023 01:18 6,8 C 6,1 C 3,3 C 96 % 1026,1 hPa 0,0 l/m 0 min 0 min 0 W/m 0,0 km/h (0 Bft) 100,00 %
03.01.2023 01:20 6,8 C 6,1 C 3,3 C 96 % 1026,2 hPa 0,0 l/m 0 min 0 min 0 W/m 6,4 km/h (2 Bft) 97,83 %
03.01.2023 01:22 6,8 C 6,1 C 3,3 C 96 % 1026,2 hPa 0,0 l/m 0 min 0 min 0 W/m 3,2 km/h (1 Bft) 97,87 %
03.01.2023 01:24 6,8 C 5,6 C 3,3 C 96 % 1026,2 hPa 0,0 l/m 0 min 0 min 0 W/m 0,0 km/h (0 Bft) 97,87 %
03.01.2023 01:26 6,7 C 6,1 C 3,3 C 96 % 1026,2 hPa 0,0 l/m 0 min 0 min 0 W/m 16,1 km/h (3 Bft) 95,74 %
03.01.2023 01:28 6,7 C 5,6 C 3,3 C 96 % 1026,2 hPa 0,0 l/m 0 min 0 min 0 W/m 6,4 km/h (2 Bft) 97,87 %
03.01.2023 01:30 6,7 C 5,6 C 3,3 C 96 % 1026,3 hPa 0,0 l/m 0 min 0 min 0 W/m 6,4 km/h (2 Bft) 97,87 %
03.01.2023 01:32 6,7 C 5,6 C 3,3 C 96 % 1026,3 hPa 0,0 l/m 0 min 0 min 0 W/m 0,0 km/h (0 Bft) 97,83 %
03.01.2023 01:34 6,6 C 5,6 C 3,3 C 96 % 1026,3 hPa 0,0 l/m 0 min 0 min 0 W/m 0,0 km/h (0 Bft) 97,87 %
03.01.2023 01:36 6,6 C 5,6 C 3,3 C 96 % 1026,3 hPa 0,0 l/m 0 min 0 min 0 W/m 0,0 km/h (0 Bft) 97,87 %
03.01.2023 01:38 6,6 C 5,6 C 3,3 C 96 % 1026,3 hPa 0,0 l/m 0 min 0 min 0 W/m 6,4 km/h (2 Bft) 95,74 %
03.01.2023 01:40 6,6 C 5,6 C 3,3 C 96 % 1026,3 hPa 0,0 l/m 0 min 0 min 0 W/m 9,7 km/h (2 Bft) 100,00 %
03.01.2023 01:42 6,5 C 5,6 C 3,3 C 96 % 1026,3 hPa 0,0 l/m 0 min 0 min 0 W/m 3,2 km/h (1 Bft) 95,74 %
03.01.2023 01:44 6,5 C 5,6 C 2,8 C 96 % 1026,2 hPa 0,0 l/m 0 min 0 min 0 W/m 3,2 km/h (1 Bft) 97,83 %
03.01.2023 01:46 6,5 C 5,6 C 2,8 C 96 % 1026,3 hPa 0,0 l/m 0 min 0 min 0 W/m 3,2 km/h (1 Bft) 100,00 %
03.01.2023 01:48 6,5 C 5,6 C 2,8 C 96 % 1026,3 hPa 0,0 l/m 0 min 0 min 0 W/m 6,4 km/h (2 Bft) 100,00 %
03.01.2023 01:50 6,4 C 5,6 C 2,8 C 96 % 1026,3 hPa 0,0 l/m 0 min 0 min 0 W/m 0,0 km/h (0 Bft) 97,87 %
03.01.2023 01:52 6,4 C 5,6 C 2,8 C 96 % 1026,3 hPa 0,0 l/m 0 min 0 min 0 W/m 3,2 km/h (1 Bft) 100,00 %
03.01.2023 01:54 6,4 C 5,6 C 2,8 C 96 % 1026,4 hPa 0,0 l/m 0 min 0 min 0 W/m 6,4 km/h (2 Bft) 98,11 %
03.01.2023 01:56 6,4 C 5,6 C 2,8 C 96 % 1026,3 hPa 0,0 l/m 0 min 0 min 0 W/m 3,2 km/h (1 Bft) 100,00 %
03.01.2023 01:58 6,4 C 5,6 C 2,8 C 96 % 1026,3 hPa 0,0 l/m 0 min 0 min 0 W/m 3,2 km/h (1 Bft) 100,00 %
03.01.2023 02:00 6,3 C 5,6 C 2,8 C 96 % 1026,3 hPa 0,0 l/m 0 min 0 min 0 W/m 12,9 km/h (3 Bft) 95,74 %
03.01.2023 02:02 6,3 C 5,6 C 2,8 C 96 % 1026,3 hPa 0,0 l/m 0 min 0 min 0 W/m 3,2 km/h (1 Bft) 100,00 %
03.01.2023 02:04 6,3 C 5,6 C 2,8 C 96 % 1026,4 hPa 0,0 l/m 0 min 0 min 0 W/m 3,2 km/h (1 Bft) 97,87 %
03.01.2023 02:06 6,3 C 5,6 C 2,8 C 96 % 1026,4 hPa 0,0 l/m 0 min 0 min 0 W/m 3,2 km/h (1 Bft) 97,87 %
03.01.2023 02:08 6,3 C 5,6 C 2,8 C 96 % 1026,5 hPa 0,0 l/m 0 min 0 min 0 W/m 3,2 km/h (1 Bft) 95,65 %
03.01.2023 02:10 6,2 C 5,6 C 2,8 C 96 % 1026,5 hPa 0,0 l/m 0 min 0 min 0 W/m 3,2 km/h (1 Bft) 91,49 %
03.01.2023 02:14 6,2 C 5,6 C 2,8 C 96 % 1026,5 hPa 0,0 l/m 0 min 0 min 0 W/m 3,2 km/h (1 Bft) 100,00 %
03.01.2023 02:16 6,2 C 5,0 C 2,8 C 96 % 1026,5 hPa 0,0 l/m 0 min 0 min 0 W/m 3,2 km/h (1 Bft) 95,74 %
03.01.2023 02:18 6,2 C 5,0 C 2,8 C 96 % 1026,5 hPa 0,0 l/m 0 min 0 min 0 W/m 3,2 km/h (1 Bft) 93,62 %
03.01.2023 02:20 6,1 C 5,0 C 2,8 C 96 % 1026,6 hPa 0,0 l/m 0 min 0 min 0 W/m 3,2 km/h (1 Bft) 95,74 %
03.01.2023 02:22 6,1 C 5,0 C 2,8 C 96 % 1026,6 hPa 0,0 l/m 0 min 0 min 0 W/m 3,2 km/h (1 Bft) 95,74 %
03.01.2023 02:24 6,1 C 5,0 C 2,8 C 96 % 1026,6 hPa 0,0 l/m 0 min 0 min 0 W/m 3,2 km/h (1 Bft) 95,65 %
03.01.2023 02:26 6,1 C 5,0 C 2,8 C 96 % 1026,6 hPa 0,0 l/m 0 min 0 min 0 W/m 6,4 km/h (2 Bft) 91,49 %
03.01.2023 02:28 6,0 C 5,0 C 2,8 C 96 % 1026,7 hPa 0,0 l/m 0 min 0 min 0 W/m 3,2 km/h (1 Bft) 95,74 %
03.01.2023 02:30 6,0 C 5,0 C 2,8 C 96 % 1026,7 hPa 0,0 l/m 0 min 0 min 0 W/m 3,2 km/h (1 Bft) 95,74 %
03.01.2023 02:32 5,9 C 5,0 C 2,8 C 96 % 1026,7 hPa 0,0 l/m 0 min 0 min 0 W/m 0,0 km/h (0 Bft) 95,74 %
03.01.2023 02:34 5,9 C 5,0 C 2,8 C 95 % 1026,8 hPa 0,0 l/m 0 min 0 min 0 W/m 0,0 km/h (0 Bft) 93,62 %
03.01.2023 02:36 5,9 C 5,0 C 2,8 C 95 % 1026,8 hPa 0,0 l/m 0 min 0 min 0 W/m 0,0 km/h (0 Bft) 95,65 %
03.01.2023 02:38 5,9 C 5,0 C 2,8 C 95 % 1026,8 hPa 0,0 l/m 0 min 0 min 0 W/m 0,0 km/h (0 Bft) 95,74 %
03.01.2023 02:40 5,8 C 5,0 C 2,2 C 95 % 1026,8 hPa 0,0 l/m 0 min 0 min 0 W/m 0,0 km/h (0 Bft) 95,74 %
03.01.2023 02:42 5,8 C 5,0 C 2,2 C 95 % 1026,9 hPa 0,0 l/m 0 min 0 min 0 W/m 0,0 km/h (0 Bft) 97,87 %
03.01.2023 02:44 5,8 C 5,0 C 2,8 C 95 % 1026,9 hPa 0,0 l/m 0 min 0 min 0 W/m 0,0 km/h (0 Bft) 97,87 %
03.01.2023 02:46 5,8 C 4,4 C 2,2 C 96 % 1026,9 hPa 0,0 l/m 0 min 0 min 0 W/m 0,0 km/h (0 Bft) 97,92 %
03.01.2023 02:48 5,7 C 4,4 C 2,2 C 96 % 1026,9 hPa 0,0 l/m 0 min 0 min 0 W/m 0,0 km/h (0 Bft) 97,87 %
03.01.2023 02:50 5,7 C 4,4 C 2,2 C 96 % 1027,0 hPa 0,0 l/m 0 min 0 min 0 W/m 3,2 km/h (1 Bft) 95,74 %
03.01.2023 02:52 5,7 C 4,4 C 2,2 C 96 % 1027,0 hPa 0,0 l/m 0 min 0 min 0 W/m 12,9 km/h (3 Bft) 97,87 %
03.01.2023 02:54 5,7 C 4,4 C 2,2 C 96 % 1027,1 hPa 0,0 l/m 0 min 0 min 0 W/m 3,2 km/h (1 Bft) 97,87 %
03.01.2023 02:56 5,7 C 4,4 C 2,2 C 96 % 1027,1 hPa 0,0 l/m 0 min 0 min 0 W/m 3,2 km/h (1 Bft) 97,87 %
03.01.2023 02:58 5,6 C 4,4 C 2,2 C 96 % 1027,1 hPa 0,0 l/m 0 min 0 min 0 W/m 3,2 km/h (1 Bft) 95,65 %
03.01.2023 03:00 5,6 C 4,4 C 2,2 C 96 % 1027,2 hPa 0,0 l/m 0 min 0 min 0 W/m 6,4 km/h (2 Bft) 97,87 %
03.01.2023 03:02 5,6 C 4,4 C 2,2 C 95 % 1027,2 hPa 0,0 l/m 0 min 0 min 0 W/m 3,2 km/h (1 Bft) 97,87 %
03.01.2023 03:04 5,6 C 4,4 C 2,2 C 95 % 1027,1 hPa 0,0 l/m 0 min 0 min 0 W/m 3,2 km/h (1 Bft) 93,62 %
03.01.2023 03:06 5,6 C 4,4 C 2,2 C 95 % 1027,2 hPa 0,0 l/m 0 min 0 min 0 W/m 3,2 km/h (1 Bft) 96,55 %
03.01.2023 03:08 5,6 C 4,4 C 2,2 C 95 % 1027,2 hPa 0,0 l/m 0 min 0 min 0 W/m 3,2 km/h (1 Bft) 100,00 %
03.01.2023 03:10 5,6 C 4,4 C 2,2 C 95 % 1027,2 hPa 0,0 l/m 0 min 0 min 0 W/m 6,4 km/h (2 Bft) 91,49 %
03.01.2023 03:12 5,6 C 4,4 C 2,2 C 95 % 1027,2 hPa 0,0 l/m 0 min 0 min 0 W/m 3,2 km/h (1 Bft) 97,87 %
03.01.2023 03:14 5,5 C 4,4 C 2,2 C 95 % 1027,2 hPa 0,0 l/m 0 min 0 min 0 W/m 0,0 km/h (0 Bft) 97,87 %
03.01.2023 03:16 5,5 C 4,4 C 2,2 C 96 % 1027,2 hPa 0,0 l/m 0 min 0 min 0 W/m 3,2 km/h (1 Bft) 97,87 %
03.01.2023 03:18 5,5 C 4,4 C 2,2 C 96 % 1027,2 hPa 0,0 l/m 0 min 0 min 0 W/m 3,2 km/h (1 Bft) 97,87 %
03.01.2023 03:20 5,4 C 4,4 C 2,2 C 96 % 1027,2 hPa 0,0 l/m 0 min 0 min 0 W/m 6,4 km/h (2 Bft) 95,65 %
03.01.2023 03:22 5,4 C 4,4 C 2,2 C 96 % 1027,2 hPa 0,0 l/m 0 min 0 min 0 W/m 0,0 km/h (0 Bft) 97,87 %
03.01.2023 03:24 5,4 C 4,4 C 2,2 C 96 % 1027,2 hPa 0,0 l/m 0 min 0 min 0 W/m 3,2 km/h (1 Bft) 97,87 %
03.01.2023 03:26 5,4 C 4,4 C 2,2 C 96 % 1027,2 hPa 0,0 l/m 0 min 0 min 0 W/m 0,0 km/h (0 Bft) 97,87 %
03.01.2023 03:28 5,4 C 4,4 C 2,2 C 96 % 1027,3 hPa 0,0 l/m 0 min 0 min 0 W/m 3,2 km/h (1 Bft) 97,87 %
03.01.2023 03:30 5,4 C 4,4 C 2,2 C 96 % 1027,3 hPa 0,0 l/m 0 min 0 min 0 W/m 3,2 km/h (1 Bft) 97,87 %
03.01.2023 03:32 5,3 C 4,4 C 1,7 C 96 % 1027,3 hPa 0,0 l/m 0 min 0 min 0 W/m 3,2 km/h (1 Bft) 97,83 %
03.01.2023 03:34 5,3 C 4,4 C 1,7 C 96 % 1027,2 hPa 0,0 l/m 0 min 0 min 0 W/m 3,2 km/h (1 Bft) 100,00 %
03.01.2023 03:36 5,3 C 4,4 C 1,7 C 96 % 1027,3 hPa 0,0 l/m 0 min 0 min 0 W/m 3,2 km/h (1 Bft) 100,00 %
03.01.2023 03:38 5,3 C 3,9 C 1,7 C 95 % 1027,2 hPa 0,0 l/m 0 min 0 min 0 W/m 0,0 km/h (0 Bft) 100,00 %
03.01.2023 03:40 5,3 C 3,9 C 1,7 C 95 % 1027,2 hPa 0,0 l/m 0 min 0 min 0 W/m 0,0 km/h (0 Bft) 100,00 %
03.01.2023 03:42 5,2 C 3,9 C 1,7 C 95 % 1027,2 hPa 0,0 l/m 0 min 0 min 0 W/m 3,2 km/h (1 Bft) 100,00 %
03.01.2023 03:44 5,2 C 3,9 C 1,7 C 95 % 1027,3 hPa 0,0 l/m 0 min 0 min 0 W/m 0,0 km/h (0 Bft) 100,00 %
03.01.2023 03:46 5,2 C 3,9 C 1,7 C 95 % 1027,3 hPa 0,0 l/m 0 min 0 min 0 W/m 3,2 km/h (1 Bft) 100,00 %
03.01.2023 03:48 5,2 C 3,9 C 1,7 C 96 % 1027,3 hPa 0,0 l/m 0 min 0 min 0 W/m 6,4 km/h (2 Bft) 100,00 %
03.01.2023 03:50 5,2 C 3,9 C 1,7 C 96 % 1027,2 hPa 0,0 l/m 0 min 0 min 0 W/m 0,0 km/h (0 Bft) 95,74 %
03.01.2023 03:52 5,1 C 3,9 C 1,7 C 96 % 1027,2 hPa 0,0 l/m 0 min 0 min 0 W/m 3,2 km/h (1 Bft) 97,87 %
03.01.2023 03:54 5,1 C 3,9 C 2,2 C 96 % 1027,3 hPa 0,0 l/m 0 min 0 min 0 W/m 3,2 km/h (1 Bft) 100,00 %
03.01.2023 03:56 5,1 C 3,9 C 1,7 C 96 % 1027,3 hPa 0,0 l/m 0 min 0 min 0 W/m 3,2 km/h (1 Bft) 100,00 %
03.01.2023 03:58 5,1 C 3,9 C 1,7 C 96 % 1027,3 hPa 0,0 l/m 0 min 0 min 0 W/m 3,2 km/h (1 Bft) 95,74 %
03.01.2023 04:00 5,1 C 3,9 C 1,7 C 96 % 1027,3 hPa 0,0 l/m 0 min 0 min 0 W/m 6,4 km/h (2 Bft) 97,87 %
03.01.2023 04:02 5,1 C 3,9 C 1,7 C 96 % 1027,3 hPa 0,0 l/m 0 min 0 min 0 W/m 3,2 km/h (1 Bft) 100,00 %
03.01.2023 04:04 5,1 C 3,9 C 1,7 C 96 % 1027,3 hPa 0,0 l/m 0 min 0 min 0 W/m 6,4 km/h (2 Bft) 100,00 %
03.01.2023 04:06 5,1 C 3,9 C 1,7 C 96 % 1027,4 hPa 0,0 l/m 0 min 0 min 0 W/m 6,4 km/h (2 Bft) 100,00 %
03.01.2023 04:08 5,1 C 3,9 C 2,2 C 96 % 1027,3 hPa 0,0 l/m 0 min 0 min 0 W/m 6,4 km/h (2 Bft) 97,14 %
03.01.2023 04:10 5,1 C 3,9 C 2,2 C 96 % 1027,4 hPa 0,0 l/m 0 min 0 min 0 W/m 6,4 km/h (2 Bft) 100,00 %
03.01.2023 04:12 5,0 C 3,9 C 2,2 C 96 % 1027,4 hPa 0,0 l/m 0 min 0 min 0 W/m 6,4 km/h (2 Bft) 100,00 %
03.01.2023 04:14 5,0 C 3,9 C 1,7 C 96 % 1027,4 hPa 0,0 l/m 0 min 0 min 0 W/m 3,2 km/h (1 Bft) 100,00 %
03.01.2023 04:16 5,0 C 3,9 C 1,7 C 96 % 1027,4 hPa 0,0 l/m 0 min 0 min 0 W/m 9,7 km/h (2 Bft) 97,87 %
03.01.2023 04:18 5,0 C 3,9 C 1,7 C 96 % 1027,3 hPa 0,0 l/m 0 min 0 min 0 W/m 6,4 km/h (2 Bft) 97,87 %
03.01.2023 04:20 4,9 C 3,9 C 2,2 C 96 % 1027,4 hPa 0,0 l/m 0 min 0 min 0 W/m 9,7 km/h (2 Bft) 97,83 %
03.01.2023 04:22 4,9 C 3,9 C 1,7 C 96 % 1027,4 hPa 0,0 l/m 0 min 0 min 0 W/m 9,7 km/h (2 Bft) 97,87 %
03.01.2023 04:24 4,9 C 3,9 C 1,7 C 96 % 1027,3 hPa 0,0 l/m 0 min 0 min 0 W/m 6,4 km/h (2 Bft) 95,74 %
03.01.2023 04:26 4,9 C 3,9 C 1,7 C 96 % 1027,3 hPa 0,0 l/m 0 min 0 min 0 W/m 0,0 km/h (0 Bft) 97,87 %
03.01.2023 04:28 4,9 C 3,9 C 1,7 C 96 % 1027,3 hPa 0,0 l/m 0 min 0 min 0 W/m 0,0 km/h (0 Bft) 97,87 %
03.01.2023 04:30 4,9 C 3,9 C 1,7 C 96 % 1027,3 hPa 0,0 l/m 0 min 0 min 0 W/m 0,0 km/h (0 Bft) 95,74 %
03.01.2023 04:32 4,9 C 3,9 C 1,7 C 96 % 1027,3 hPa 0,0 l/m 0 min 0 min 0 W/m 0,0 km/h (0 Bft) 97,83 %
03.01.2023 04:34 4,8 C 3,9 C 1,7 C 96 % 1027,3 hPa 0,0 l/m 0 min 0 min 0 W/m 0,0 km/h (0 Bft) 93,62 %
03.01.2023 04:36 4,8 C 3,9 C 1,7 C 96 % 1027,3 hPa 0,0 l/m 0 min 0 min 0 W/m 0,0 km/h (0 Bft) 97,87 %
03.01.2023 04:38 4,8 C 3,9 C 1,7 C 96 % 1027,4 hPa 0,0 l/m 0 min 0 min 0 W/m 0,0 km/h (0 Bft) 97,87 %
03.01.2023 04:40 4,8 C 3,9 C 1,7 C 96 % 1027,4 hPa 0,0 l/m 0 min 0 min 0 W/m 0,0 km/h (0 Bft) 95,74 %
03.01.2023 04:42 4,7 C 3,9 C 1,7 C 96 % 1027,4 hPa 0,0 l/m 0 min 0 min 0 W/m 0,0 km/h (0 Bft) 95,74 %
03.01.2023 04:44 4,7 C 3,9 C 1,7 C 96 % 1027,4 hPa 0,0 l/m 0 min 0 min 0 W/m 0,0 km/h (0 Bft) 45,95 %
03.01.2023 04:46 4,7 C 3,3 C 1,7 C 96 % 1027,4 hPa 0,0 l/m 0 min 0 min 0 W/m 0,0 km/h (0 Bft) 97,87 %
03.01.2023 04:48 4,7 C 3,3 C 1,7 C 96 % 1027,4 hPa 0,0 l/m 0 min 0 min 0 W/m 0,0 km/h (0 Bft) 95,74 %
03.01.2023 04:50 4,6 C 3,3 C 1,7 C 96 % 1027,3 hPa 0,0 l/m 0 min 0 min 0 W/m 3,2 km/h (1 Bft) 95,74 %
03.01.2023 04:52 4,6 C 3,3 C 1,7 C 96 % 1027,4 hPa 0,0 l/m 0 min 0 min 0 W/m 3,2 km/h (1 Bft) 95,74 %
03.01.2023 04:54 4,6 C 3,3 C 1,7 C 96 % 1027,3 hPa 0,0 l/m 0 min 0 min 0 W/m 3,2 km/h (1 Bft) 95,74 %
03.01.2023 04:56 4,6 C 3,3 C 1,7 C 96 % 1027,3 hPa 0,0 l/m 0 min 0 min 0 W/m 6,4 km/h (2 Bft) 93,48 %
03.01.2023 04:58 4,6 C 3,3 C 1,7 C 96 % 1027,4 hPa 0,0 l/m 0 min 0 min 0 W/m 3,2 km/h (1 Bft) 95,74 %
03.01.2023 05:00 4,6 C 3,3 C 1,7 C 96 % 1027,4 hPa 0,0 l/m 0 min 0 min 0 W/m 3,2 km/h (1 Bft) 100,00 %
03.01.2023 05:02 4,5 C 3,3 C 1,7 C 96 % 1027,4 hPa 0,0 l/m 0 min 0 min 0 W/m 3,2 km/h (1 Bft) 97,87 %
03.01.2023 05:04 4,5 C 3,3 C 1,7 C 96 % 1027,4 hPa 0,0 l/m 0 min 0 min 0 W/m 0,0 km/h (0 Bft) 97,87 %
03.01.2023 05:06 4,4 C 3,3 C 1,7 C 96 % 1027,4 hPa 0,0 l/m 0 min 0 min 0 W/m 0,0 km/h (0 Bft) 98,31 %
03.01.2023 05:08 4,4 C 3,3 C 1,7 C 96 % 1027,4 hPa 0,0 l/m 0 min 0 min 0 W/m 3,2 km/h (1 Bft) 97,14 %
03.01.2023 05:10 4,4 C 3,3 C 1,7 C 96 % 1027,4 hPa 0,0 l/m 0 min 0 min 0 W/m 3,2 km/h (1 Bft) 97,87 %
03.01.2023 05:12 4,4 C 3,3 C 1,7 C 96 % 1027,4 hPa 0,0 l/m 0 min 0 min 0 W/m 3,2 km/h (1 Bft) 97,87 %
03.01.2023 05:14 4,4 C 3,3 C 1,7 C 96 % 1027,4 hPa 0,0 l/m 0 min 0 min 0 W/m 3,2 km/h (1 Bft) 97,87 %
03.01.2023 05:16 4,3 C 3,3 C 1,7 C 96 % 1027,4 hPa 0,0 l/m 0 min 0 min 0 W/m 3,2 km/h (1 Bft) 100,00 %
03.01.2023 05:18 4,3 C 3,3 C 1,7 C 96 % 1027,4 hPa 0,0 l/m 0 min 0 min 0 W/m 3,2 km/h (1 Bft) 97,87 %
03.01.2023 05:20 4,3 C 3,3 C 1,7 C 96 % 1027,4 hPa 0,0 l/m 0 min 0 min 0 W/m 3,2 km/h (1 Bft) 97,83 %
03.01.2023 05:22 4,3 C 3,3 C 1,7 C 96 % 1027,4 hPa 0,0 l/m 0 min 0 min 0 W/m 3,2 km/h (1 Bft) 97,87 %
03.01.2023 05:24 4,3 C 3,3 C 1,7 C 96 % 1027,4 hPa 0,0 l/m 0 min 0 min 0 W/m 0,0 km/h (0 Bft) 100,00 %
03.01.2023 05:26 4,3 C 3,3 C 1,7 C 96 % 1027,4 hPa 0,0 l/m 0 min 0 min 0 W/m 0,0 km/h (0 Bft) 100,00 %
03.01.2023 05:28 4,3 C 3,3 C 1,7 C 96 % 1027,4 hPa 0,0 l/m 0 min 0 min 0 W/m 0,0 km/h (0 Bft) 100,00 %
03.01.2023 05:30 4,2 C 3,3 C 1,1 C 96 % 1027,3 hPa 0,0 l/m 0 min 0 min 0 W/m 3,2 km/h (1 Bft) 93,48 %
03.01.2023 05:32 4,2 C 3,3 C 1,1 C 96 % 1027,4 hPa 0,0 l/m 0 min 0 min 0 W/m 3,2 km/h (1 Bft) 97,87 %
03.01.2023 05:34 4,2 C 3,3 C 1,1 C 96 % 1027,4 hPa 0,0 l/m 0 min 0 min 0 W/m 3,2 km/h (1 Bft) 97,87 %
03.01.2023 05:36 4,2 C 3,3 C 1,1 C 96 % 1027,4 hPa 0,0 l/m 0 min 0 min 0 W/m 3,2 km/h (1 Bft) 97,87 %
03.01.2023 05:38 4,2 C 3,3 C 1,1 C 96 % 1027,4 hPa 0,0 l/m 0 min 0 min 0 W/m 3,2 km/h (1 Bft) 97,87 %
03.01.2023 05:40 4,2 C 3,3 C 1,1 C 96 % 1027,4 hPa 0,0 l/m 0 min 0 min 0 W/m 3,2 km/h (1 Bft) 95,74 %
03.01.2023 05:42 4,2 C 3,3 C 1,1 C 96 % 1027,4 hPa 0,0 l/m 0 min 0 min 0 W/m 0,0 km/h (0 Bft) 97,83 %
03.01.2023 05:44 4,2 C 3,3 C 1,1 C 96 % 1027,4 hPa 0,0 l/m 0 min 0 min 0 W/m 3,2 km/h (1 Bft) 95,74 %
03.01.2023 05:46 4,2 C 3,3 C 1,1 C 96 % 1027,5 hPa 0,0 l/m 0 min 0 min 0 W/m 0,0 km/h (0 Bft) 97,87 %
03.01.2023 05:48 4,1 C 3,3 C 1,1 C 96 % 1027,4 hPa 0,0 l/m 0 min 0 min 0 W/m 3,2 km/h (1 Bft) 97,87 %
03.01.2023 05:50 4,1 C 3,3 C 1,1 C 96 % 1027,4 hPa 0,0 l/m 0 min 0 min 0 W/m 0,0 km/h (0 Bft) 97,87 %
03.01.2023 05:52 4,1 C 3,3 C 1,1 C 96 % 1027,4 hPa 0,0 l/m 0 min 0 min 0 W/m 3,2 km/h (1 Bft) 97,87 %
03.01.2023 05:54 4,1 C 3,3 C 1,1 C 96 % 1027,5 hPa 0,0 l/m 0 min 0 min 0 W/m 0,0 km/h (0 Bft) 97,83 %
03.01.2023 05:56 4,1 C 3,3 C 1,1 C 96 % 1027,5 hPa 0,0 l/m 0 min 0 min 0 W/m 0,0 km/h (0 Bft) 95,74 %
03.01.2023 05:58 4,1 C 3,3 C 1,1 C 96 % 1027,5 hPa 0,0 l/m 0 min 0 min 0 W/m 3,2 km/h (1 Bft) 97,87 %
03.01.2023 06:00 4,1 C 3,3 C 1,7 C 96 % 1027,5 hPa 0,2 l/m 0 min 0 min 0 W/m 0,0 km/h (0 Bft) 95,74 %
03.01.2023 06:02 4,1 C 3,3 C 1,7 C 96 % 1027,5 hPa 0,0 l/m 0 min 0 min 0 W/m 0,0 km/h (0 Bft) 97,87 %
03.01.2023 06:04 4,1 C 3,3 C 1,7 C 96 % 1027,5 hPa 0,0 l/m 0 min 0 min 0 W/m 0,0 km/h (0 Bft) 97,87 %
03.01.2023 06:08 4,1 C 3,3 C 1,7 C 96 % 1027,4 hPa 0,0 l/m 0 min 0 min 0 W/m 3,2 km/h (1 Bft) 96,81 %
03.01.2023 06:10 4,1 C 3,3 C 1,7 C 96 % 1027,5 hPa 0,0 l/m 0 min 0 min 0 W/m 0,0 km/h (0 Bft) 97,87 %
03.01.2023 06:12 4,1 C 3,3 C 1,7 C 97 % 1027,5 hPa 0,0 l/m 0 min 0 min 0 W/m 0,0 km/h (0 Bft) 97,87 %
03.01.2023 06:14 4,1 C 3,3 C 1,7 C 97 % 1027,4 hPa 0,0 l/m 0 min 0 min 0 W/m 0,0 km/h (0 Bft) 97,87 %
03.01.2023 06:16 4,1 C 3,3 C 1,7 C 97 % 1027,4 hPa 0,0 l/m 0 min 0 min 0 W/m 0,0 km/h (0 Bft) 95,74 %
03.01.2023 06:18 4,1 C 3,3 C 1,7 C 97 % 1027,4 hPa 0,0 l/m 0 min 0 min 0 W/m 0,0 km/h (0 Bft) 93,48 %
03.01.2023 06:20 4,2 C 3,3 C 1,7 C 96 % 1027,4 hPa 0,0 l/m 0 min 0 min 0 W/m 0,0 km/h (0 Bft) 97,87 %
03.01.2023 06:22 4,2 C 3,3 C 1,7 C 96 % 1027,5 hPa 0,0 l/m 0 min 0 min 0 W/m 0,0 km/h (0 Bft) 93,62 %
03.01.2023 06:24 4,2 C 3,3 C 1,7 C 96 % 1027,5 hPa 0,0 l/m 0 min 0 min 0 W/m 0,0 km/h (0 Bft) 97,87 %
03.01.2023 06:26 4,2 C 3,3 C 1,7 C 97 % 1027,5 hPa 0,0 l/m 0 min 0 min 0 W/m 3,2 km/h (1 Bft) 97,87 %
03.01.2023 06:28 4,2 C 3,3 C 1,7 C 97 % 1027,5 hPa 0,0 l/m 0 min 0 min 0 W/m 0,0 km/h (0 Bft) 95,74 %
03.01.2023 06:30 4,2 C 3,3 C 1,7 C 97 % 1027,4 hPa 0,0 l/m 0 min 0 min 0 W/m 3,2 km/h (1 Bft) 95,65 %
03.01.2023 06:32 4,2 C 3,3 C 1,7 C 97 % 1027,4 hPa 0,0 l/m 0 min 0 min 0 W/m 3,2 km/h (1 Bft) 91,49 %
03.01.2023 06:34 4,2 C 3,3 C 1,7 C 97 % 1027,4 hPa 0,0 l/m 0 min 0 min 0 W/m 0,0 km/h (0 Bft) 100,00 %
03.01.2023 06:36 4,2 C 3,3 C 1,7 C 97 % 1027,4 hPa 0,0 l/m 0 min 0 min 0 W/m 0,0 km/h (0 Bft) 93,62 %
03.01.2023 06:38 4,2 C 3,3 C 1,7 C 97 % 1027,4 hPa 0,0 l/m 0 min 0 min 0 W/m 0,0 km/h (0 Bft) 93,62 %
03.01.2023 06:40 4,2 C 3,3 C 1,7 C 97 % 1027,4 hPa 0,0 l/m 0 min 0 min 0 W/m 0,0 km/h (0 Bft) 95,74 %
03.01.2023 06:42 4,3 C 3,3 C 1,7 C 97 % 1027,4 hPa 0,0 l/m 0 min 0 min 0 W/m 0,0 km/h (0 Bft) 95,65 %
03.01.2023 06:44 4,3 C 3,3 C 1,7 C 97 % 1027,4 hPa 0,0 l/m 0 min 0 min 0 W/m 0,0 km/h (0 Bft) 95,74 %
03.01.2023 06:46 4,3 C 3,3 C 1,7 C 97 % 1027,4 hPa 0,0 l/m 0 min 0 min 0 W/m 3,2 km/h (1 Bft) 93,62 %
03.01.2023 06:48 4,3 C 3,3 C 1,7 C 97 % 1027,4 hPa 0,0 l/m 0 min 0 min 0 W/m 3,2 km/h (1 Bft) 97,87 %
03.01.2023 06:50 4,3 C 3,3 C 1,7 C 97 % 1027,3 hPa 0,0 l/m 0 min 0 min 0 W/m 3,2 km/h (1 Bft) 93,62 %
03.01.2023 06:52 4,3 C 3,3 C 1,7 C 97 % 1027,4 hPa 0,0 l/m 0 min 0 min 0 W/m 3,2 km/h (1 Bft) 93,62 %
03.01.2023 06:54 4,3 C 3,3 C 1,7 C 97 % 1027,3 hPa 0,0 l/m 0 min 0 min 0 W/m 3,2 km/h (1 Bft) 95,65 %
03.01.2023 06:56 4,3 C 3,3 C 1,7 C 97 % 1027,4 hPa 0,0 l/m 0 min 0 min 0 W/m 3,2 km/h (1 Bft) 95,74 %
03.01.2023 06:58 4,3 C 3,3 C 1,7 C 97 % 1027,4 hPa 0,0 l/m 0 min 0 min 0 W/m 3,2 km/h (1 Bft) 95,74 %
03.01.2023 07:00 4,3 C 3,3 C 1,7 C 97 % 1027,4 hPa 0,0 l/m 0 min 0 min 0 W/m 3,2 km/h (1 Bft) 95,74 %
03.01.2023 07:02 4,3 C 3,3 C 1,7 C 97 % 1027,4 hPa 0,0 l/m 0 min 0 min 0 W/m 3,2 km/h (1 Bft) 97,87 %
03.01.2023 07:04 4,3 C 3,3 C 1,7 C 97 % 1027,3 hPa 0,0 l/m 0 min 0 min 0 W/m 3,2 km/h (1 Bft) 97,87 %
03.01.2023 07:06 4,3 C 3,3 C 1,7 C 97 % 1027,3 hPa 0,0 l/m 0 min 0 min 0 W/m 3,2 km/h (1 Bft) 97,83 %
03.01.2023 07:08 4,3 C 3,3 C 1,7 C 97 % 1027,4 hPa 0,0 l/m 0 min 0 min 0 W/m 3,2 km/h (1 Bft) 100,00 %
03.01.2023 07:10 4,3 C 3,9 C 1,7 C 97 % 1027,4 hPa 0,0 l/m 0 min 0 min 0 W/m 0,0 km/h (0 Bft) 97,87 %
03.01.2023 07:12 4,3 C 3,9 C 1,7 C 97 % 1027,4 hPa 0,0 l/m 0 min 0 min 0 W/m 0,0 km/h (0 Bft) 100,00 %
03.01.2023 07:14 4,3 C 3,9 C 1,7 C 97 % 1027,4 hPa 0,0 l/m 0 min 0 min 0 W/m 3,2 km/h (1 Bft) 100,00 %
03.01.2023 07:16 4,3 C 3,9 C 1,7 C 97 % 1027,4 hPa 0,0 l/m 0 min 0 min 0 W/m 3,2 km/h (1 Bft) 97,83 %
03.01.2023 07:18 4,3 C 3,9 C 1,7 C 97 % 1027,4 hPa 0,0 l/m 0 min 0 min 0 W/m 3,2 km/h (1 Bft) 100,00 %
03.01.2023 07:20 4,3 C 3,9 C 1,7 C 97 % 1027,4 hPa 0,0 l/m 0 min 0 min 0 W/m 3,2 km/h (1 Bft) 100,00 %
03.01.2023 07:22 4,3 C 3,9 C 1,7 C 97 % 1027,4 hPa 0,0 l/m 0 min 0 min 0 W/m 3,2 km/h (1 Bft) 100,00 %
03.01.2023 07:24 4,3 C 3,9 C 1,7 C 97 % 1027,4 hPa 0,0 l/m 0 min 0 min 0 W/m 0,0 km/h (0 Bft) 100,00 %
03.01.2023 07:26 4,3 C 3,9 C 1,7 C 97 % 1027,4 hPa 0,0 l/m 0 min 0 min 0 W/m 0,0 km/h (0 Bft) 97,87 %
03.01.2023 07:28 4,3 C 3,9 C 1,7 C 97 % 1027,4 hPa 0,0 l/m 0 min 0 min 0 W/m 3,2 km/h (1 Bft) 100,00 %
03.01.2023 07:30 4,4 C 3,9 C 1,7 C 97 % 1027,4 hPa 0,0 l/m 0 min 0 min 0 W/m 3,2 km/h (1 Bft) 100,00 %
03.01.2023 07:32 4,4 C 3,9 C 1,7 C 97 % 1027,4 hPa 0,0 l/m 0 min 0 min 0 W/m 3,2 km/h (1 Bft) 95,74 %
03.01.2023 07:34 4,4 C 3,9 C 1,7 C 97 % 1027,4 hPa 0,0 l/m 0 min 0 min 0 W/m 3,2 km/h (1 Bft) 100,00 %
03.01.2023 07:36 4,4 C 3,9 C 1,7 C 97 % 1027,4 hPa 0,0 l/m 0 min 0 min 0 W/m 6,4 km/h (2 Bft) 100,00 %
03.01.2023 07:38 4,4 C 3,9 C 2,2 C 97 % 1027,4 hPa 0,0 l/m 0 min 0 min 0 W/m 3,2 km/h (1 Bft) 100,00 %
03.01.2023 07:40 4,4 C 3,9 C 2,2 C 97 % 1027,4 hPa 0,0 l/m 0 min 0 min 0 W/m 0,0 km/h (0 Bft) 100,00 %
03.01.2023 07:42 4,5 C 3,9 C 2,2 C 97 % 1027,4 hPa 0,0 l/m 0 min 0 min 0 W/m 3,2 km/h (1 Bft) 100,00 %
03.01.2023 07:44 4,5 C 3,9 C 2,2 C 97 % 1027,4 hPa 0,0 l/m 0 min 0 min 0 W/m 0,0 km/h (0 Bft) 97,87 %
03.01.2023 07:46 4,5 C 3,9 C 2,2 C 97 % 1027,4 hPa 0,0 l/m 0 min 0 min 0 W/m 6,4 km/h (2 Bft) 100,00 %
03.01.2023 07:48 4,5 C 3,9 C 2,2 C 97 % 1027,4 hPa 0,0 l/m 0 min 0 min 0 W/m 6,4 km/h (2 Bft) 100,00 %
03.01.2023 07:50 4,6 C 3,9 C 2,2 C 97 % 1027,4 hPa 0,0 l/m 0 min 0 min 0 W/m 3,2 km/h (1 Bft) 97,87 %
03.01.2023 07:52 4,6 C 4,4 C 2,2 C 97 % 1027,4 hPa 0,0 l/m 0 min 0 min 0 W/m 6,4 km/h (2 Bft) 100,00 %
03.01.2023 07:54 4,6 C 4,4 C 2,2 C 97 % 1027,4 hPa 0,0 l/m 0 min 0 min 0 W/m 6,4 km/h (2 Bft) 100,00 %
03.01.2023 07:56 4,6 C 4,4 C 2,2 C 97 % 1027,4 hPa 0,0 l/m 0 min 0 min 0 W/m 6,4 km/h (2 Bft) 97,87 %
03.01.2023 07:58 4,6 C 4,4 C 2,2 C 97 % 1027,3 hPa 0,0 l/m 0 min 0 min 0 W/m 12,9 km/h (3 Bft) 100,00 %
03.01.2023 08:00 4,7 C 4,4 C 2,2 C 97 % 1027,3 hPa 0,0 l/m 0 min 0 min 0 W/m 6,4 km/h (2 Bft) 100,00 %
03.01.2023 08:02 4,7 C 4,4 C 2,2 C 97 % 1027,3 hPa 0,0 l/m 0 min 0 min 0 W/m 3,2 km/h (1 Bft) 100,00 %
03.01.2023 08:04 4,7 C 4,4 C 2,2 C 97 % 1027,2 hPa 0,0 l/m 0 min 0 min 0 W/m 3,2 km/h (1 Bft) 100,00 %
03.01.2023 08:06 4,7 C 4,4 C 2,2 C 97 % 1027,3 hPa 0,0 l/m 0 min 0 min 0 W/m 6,4 km/h (2 Bft) 100,00 %
03.01.2023 08:08 4,8 C 4,4 C 2,2 C 97 % 1027,3 hPa 0,0 l/m 0 min 0 min 0 W/m 3,2 km/h (1 Bft) 100,00 %
03.01.2023 08:10 4,8 C 4,4 C 2,2 C 97 % 1027,3 hPa 0,0 l/m 0 min 0 min 0 W/m 6,4 km/h (2 Bft) 100,00 %
03.01.2023 08:12 4,8 C 4,4 C 2,2 C 97 % 1027,3 hPa 0,0 l/m 0 min 0 min 0 W/m 6,4 km/h (2 Bft) 97,87 %
03.01.2023 08:14 4,8 C 4,4 C 2,2 C 97 % 1027,2 hPa 0,0 l/m 0 min 0 min 0 W/m 12,9 km/h (3 Bft) 100,00 %
03.01.2023 08:16 4,8 C 4,4 C 2,2 C 97 % 1027,2 hPa 0,0 l/m 0 min 0 min 0 W/m 6,4 km/h (2 Bft) 97,83 %
03.01.2023 08:18 4,8 C 4,4 C 2,2 C 97 % 1027,2 hPa 0,0 l/m 0 min 0 min 0 W/m 6,4 km/h (2 Bft) 100,00 %
03.01.2023 08:20 4,8 C 4,4 C 2,2 C 97 % 1027,3 hPa 0,0 l/m 0 min 0 min 0 W/m 3,2 km/h (1 Bft) 97,87 %
03.01.2023 08:22 4,8 C 4,4 C 2,2 C 97 % 1027,3 hPa 0,0 l/m 0 min 0 min 0 W/m 12,9 km/h (3 Bft) 97,87 %
03.01.2023 08:24 4,8 C 4,4 C 2,2 C 97 % 1027,4 hPa 0,0 l/m 0 min 0 min 0 W/m 6,4 km/h (2 Bft) 97,87 %
03.01.2023 08:26 4,8 C 4,4 C 2,2 C 97 % 1027,3 hPa 0,0 l/m 0 min 0 min 0 W/m 6,4 km/h (2 Bft) 97,87 %
03.01.2023 08:28 4,8 C 4,4 C 2,2 C 97 % 1027,3 hPa 0,0 l/m 0 min 0 min 0 W/m 12,9 km/h (3 Bft) 97,83 %
03.01.2023 08:30 4,9 C 4,4 C 2,2 C 97 % 1027,3 hPa 0,0 l/m 0 min 0 min 0 W/m 12,9 km/h (3 Bft) 93,62 %
03.01.2023 08:32 4,9 C 4,4 C 2,2 C 97 % 1027,3 hPa 0,0 l/m 0 min 0 min 0 W/m 6,4 km/h (2 Bft) 95,74 %
03.01.2023 08:34 4,9 C 4,4 C 2,2 C 97 % 1027,3 hPa 0,0 l/m 0 min 0 min 0 W/m 12,9 km/h (3 Bft) 93,62 %
03.01.2023 08:36 4,9 C 4,4 C 2,2 C 97 % 1027,3 hPa 0,0 l/m 0 min 0 min 0 W/m 6,4 km/h (2 Bft) 95,74 %
03.01.2023 08:38 4,9 C 4,4 C 2,2 C 97 % 1027,3 hPa 0,0 l/m 0 min 0 min 0 W/m 3,2 km/h (1 Bft) 95,74 %
03.01.2023 08:40 4,9 C 4,4 C 2,2 C 97 % 1027,4 hPa 0,0 l/m 0 min 0 min 0 W/m 3,2 km/h (1 Bft) 97,83 %
03.01.2023 08:42 4,9 C 4,4 C 2,2 C 97 % 1027,4 hPa 0,0 l/m 0 min 0 min 2 W/m 12,9 km/h (3 Bft) 95,74 %
03.01.2023 08:44 4,9 C 4,4 C 2,2 C 97 % 1027,4 hPa 0,0 l/m 0 min 0 min 5 W/m 12,9 km/h (3 Bft) 91,49 %
03.01.2023 08:46 4,9 C 4,4 C 2,2 C 97 % 1027,4 hPa 0,0 l/m 0 min 0 min 5 W/m 12,9 km/h (3 Bft) 95,74 %
03.01.2023 08:48 4,9 C 4,4 C 2,2 C 97 % 1027,4 hPa 0,0 l/m 0 min 0 min 7 W/m 6,4 km/h (2 Bft) 95,74 %
03.01.2023 08:50 4,9 C 4,4 C 2,2 C 97 % 1027,4 hPa 0,0 l/m 0 min 0 min 9 W/m 6,4 km/h (2 Bft) 91,49 %
03.01.2023 08:52 4,9 C 4,4 C 2,2 C 97 % 1027,4 hPa 0,0 l/m 0 min 0 min 9 W/m 6,4 km/h (2 Bft) 93,48 %
03.01.2023 08:54 4,9 C 4,4 C 2,2 C 97 % 1027,4 hPa 0,0 l/m 0 min 0 min 9 W/m 6,4 km/h (2 Bft) 93,62 %
03.01.2023 08:56 4,9 C 4,4 C 2,2 C 97 % 1027,4 hPa 0,0 l/m 0 min 0 min 9 W/m 6,4 km/h (2 Bft) 89,36 %
03.01.2023 08:58 4,9 C 4,4 C 2,2 C 97 % 1027,4 hPa 0,0 l/m 0 min 0 min 11 W/m 9,7 km/h (2 Bft) 95,74 %
03.01.2023 09:00 4,9 C 4,4 C 2,2 C 97 % 1027,5 hPa 0,0 l/m 0 min 0 min 11 W/m 12,9 km/h (3 Bft) 95,74 %
03.01.2023 09:02 4,9 C 4,4 C 2,2 C 97 % 1027,5 hPa 0,0 l/m 0 min 0 min 10 W/m 6,4 km/h (2 Bft) 91,49 %
03.01.2023 09:04 4,9 C 4,4 C 2,2 C 97 % 1027,5 hPa 0,0 l/m 0 min 0 min 9 W/m 6,4 km/h (2 Bft) 95,65 %
03.01.2023 09:06 4,9 C 4,4 C 2,2 C 97 % 1027,5 hPa 0,0 l/m 0 min 0 min 9 W/m 12,9 km/h (3 Bft) 95,74 %
03.01.2023 09:08 4,9 C 4,4 C 2,2 C 97 % 1027,5 hPa 0,0 l/m 0 min 0 min 10 W/m 6,4 km/h (2 Bft) 91,49 %
03.01.2023 09:10 4,9 C 4,4 C 2,2 C 97 % 1027,5 hPa 0,0 l/m 0 min 0 min 13 W/m 6,4 km/h (2 Bft) 93,62 %
03.01.2023 09:12 4,9 C 4,4 C 2,2 C 98 % 1027,5 hPa 0,0 l/m 0 min 0 min 14 W/m 6,4 km/h (2 Bft) 95,74 %
03.01.2023 09:14 4,9 C 4,4 C 2,2 C 97 % 1027,5 hPa 0,0 l/m 0 min 0 min 14 W/m 9,7 km/h (2 Bft) 95,74 %
03.01.2023 09:16 4,9 C 4,4 C 2,2 C 97 % 1027,4 hPa 0,0 l/m 0 min 0 min 12 W/m 6,4 km/h (2 Bft) 95,65 %
03.01.2023 09:18 4,9 C 4,4 C 2,2 C 97 % 1027,5 hPa 0,0 l/m 0 min 0 min 12 W/m 6,4 km/h (2 Bft) 95,74 %
03.01.2023 09:20 4,9 C 4,4 C 2,2 C 97 % 1027,5 hPa 0,0 l/m 0 min 0 min 11 W/m 6,4 km/h (2 Bft) 93,62 %
03.01.2023 09:22 4,9 C 4,4 C 2,8 C 97 % 1027,5 hPa 0,0 l/m 0 min 0 min 12 W/m 6,4 km/h (2 Bft) 95,74 %
03.01.2023 09:24 4,9 C 4,4 C 2,8 C 97 % 1027,5 hPa 0,0 l/m 0 min 0 min 15 W/m 3,2 km/h (1 Bft) 93,62 %
03.01.2023 09:26 4,9 C 4,4 C 2,8 C 97 % 1027,5 hPa 0,0 l/m 0 min 0 min 19 W/m 6,4 km/h (2 Bft) 95,65 %
03.01.2023 09:28 5,0 C 5,0 C 2,8 C 97 % 1027,5 hPa 0,0 l/m 0 min 0 min 26 W/m 12,9 km/h (3 Bft) 95,74 %
03.01.2023 09:30 5,0 C 5,0 C 2,8 C 97 % 1027,5 hPa 0,0 l/m 0 min 0 min 31 W/m 6,4 km/h (2 Bft) 97,87 %
03.01.2023 09:32 5,1 C 5,0 C 2,8 C 97 % 1027,5 hPa 0,0 l/m 0 min 0 min 34 W/m 16,1 km/h (3 Bft) 97,87 %
03.01.2023 09:34 5,1 C 5,0 C 2,8 C 97 % 1027,5 hPa 0,0 l/m 0 min 0 min 34 W/m 12,9 km/h (3 Bft) 97,87 %
03.01.2023 09:36 5,1 C 5,0 C 2,8 C 97 % 1027,6 hPa 0,0 l/m 0 min 0 min 30 W/m 12,9 km/h (3 Bft) 100,00 %
03.01.2023 09:38 5,1 C 5,0 C 2,8 C 98 % 1027,6 hPa 0,0 l/m 0 min 0 min 27 W/m 6,4 km/h (2 Bft) 100,00 %
03.01.2023 09:40 5,1 C 5,0 C 2,8 C 98 % 1027,6 hPa 0,0 l/m 0 min 0 min 29 W/m 12,9 km/h (3 Bft) 97,87 %
03.01.2023 09:42 5,2 C 5,0 C 2,8 C 98 % 1027,6 hPa 0,0 l/m 0 min 0 min 33 W/m 16,1 km/h (3 Bft) 97,87 %
03.01.2023 09:44 5,2 C 5,0 C 2,8 C 98 % 1027,6 hPa 0,0 l/m 0 min 0 min 34 W/m 6,4 km/h (2 Bft) 100,00 %
03.01.2023 09:46 5,2 C 5,6 C 2,8 C 98 % 1027,6 hPa 0,0 l/m 0 min 0 min 40 W/m 6,4 km/h (2 Bft) 97,87 %
03.01.2023 09:48 5,3 C 5,6 C 2,8 C 98 % 1027,6 hPa 0,0 l/m 0 min 0 min 46 W/m 12,9 km/h (3 Bft) 95,74 %
03.01.2023 09:50 5,3 C 5,6 C 3,3 C 98 % 1027,6 hPa 0,0 l/m 0 min 0 min 44 W/m 0,0 km/h (0 Bft) 100,00 %
03.01.2023 09:52 5,3 C 5,6 C 3,3 C 98 % 1027,6 hPa 0,0 l/m 0 min 0 min 45 W/m 6,4 km/h (2 Bft) 100,00 %
03.01.2023 09:54 5,4 C 5,6 C 3,3 C 98 % 1027,7 hPa 0,0 l/m 0 min 0 min 55 W/m 6,4 km/h (2 Bft) 100,00 %
03.01.2023 09:56 5,4 C 5,6 C 3,3 C 98 % 1027,7 hPa 0,0 l/m 0 min 0 min 63 W/m 6,4 km/h (2 Bft) 100,00 %
03.01.2023 09:58 5,5 C 6,1 C 3,3 C 98 % 1027,7 hPa 0,0 l/m 0 min 0 min 70 W/m 9,7 km/h (2 Bft) 97,87 %
03.01.2023 10:00 5,5 C 6,1 C 3,3 C 98 % 1027,7 hPa 0,0 l/m 0 min 0 min 78 W/m 6,4 km/h (2 Bft) 100,00 %
03.01.2023 10:02 5,6 C 6,1 C 3,3 C 98 % 1027,8 hPa 0,0 l/m 2 min 0 min 82 W/m 6,4 km/h (2 Bft) 100,00 %
03.01.2023 10:04 5,6 C 6,1 C 3,3 C 98 % 1027,7 hPa 0,0 l/m 0 min 0 min 80 W/m 6,4 km/h (2 Bft) 100,00 %
03.01.2023 10:06 5,7 C 6,7 C 3,9 C 98 % 1027,8 hPa 0,0 l/m 2 min 0 min 87 W/m 6,4 km/h (2 Bft) 100,00 %
03.01.2023 10:08 5,7 C 6,7 C 3,9 C 98 % 1027,8 hPa 0,0 l/m 0 min 0 min 86 W/m 12,9 km/h (3 Bft) 100,00 %
03.01.2023 10:10 5,8 C 6,7 C 3,9 C 98 % 1027,8 hPa 0,0 l/m 0 min 0 min 68 W/m 9,7 km/h (2 Bft) 100,00 %
03.01.2023 10:12 5,9 C 6,1 C 3,9 C 98 % 1027,8 hPa 0,0 l/m 0 min 0 min 50 W/m 12,9 km/h (3 Bft) 97,87 %
03.01.2023 10:14 5,9 C 6,1 C 3,9 C 98 % 1027,9 hPa 0,0 l/m 0 min 0 min 40 W/m 9,7 km/h (2 Bft) 97,87 %
03.01.2023 10:16 5,9 C 6,1 C 3,9 C 98 % 1027,8 hPa 0,0 l/m 0 min 0 min 34 W/m 12,9 km/h (3 Bft) 97,83 %
03.01.2023 10:18 6,0 C 6,1 C 3,9 C 98 % 1027,8 hPa 0,0 l/m 0 min 0 min 34 W/m 16,1 km/h (3 Bft) 97,87 %
03.01.2023 10:20 6,0 C 6,1 C 3,9 C 98 % 1027,8 hPa 0,0 l/m 0 min 0 min 38 W/m 12,9 km/h (3 Bft) 95,74 %
03.01.2023 10:22 6,1 C 6,1 C 3,9 C 98 % 1027,8 hPa 0,0 l/m 0 min 0 min 44 W/m 12,9 km/h (3 Bft) 97,87 %
03.01.2023 10:24 6,1 C 6,1 C 3,9 C 98 % 1027,8 hPa 0,0 l/m 0 min 0 min 50 W/m 12,9 km/h (3 Bft) 97,87 %
03.01.2023 10:26 6,1 C 6,1 C 3,9 C 98 % 1027,8 hPa 0,0 l/m 0 min 2 min 55 W/m 12,9 km/h (3 Bft) 97,87 %
03.01.2023 10:28 6,1 C 6,1 C 3,9 C 98 % 1027,8 hPa 0,0 l/m 0 min 0 min 56 W/m 6,4 km/h (2 Bft) 97,14 %
03.01.2023 10:30 6,2 C 6,7 C 3,9 C 98 % 1027,8 hPa 0,0 l/m 0 min 2 min 58 W/m 6,4 km/h (2 Bft) 97,87 %
03.01.2023 10:32 6,2 C 6,7 C 3,9 C 98 % 1027,9 hPa 0,0 l/m 0 min 2 min 60 W/m 6,4 km/h (2 Bft) 94,83 %
03.01.2023 10:34 6,2 C 6,7 C 3,9 C 98 % 1027,9 hPa 0,0 l/m 0 min 0 min 72 W/m 6,4 km/h (2 Bft) 95,74 %
03.01.2023 10:36 6,3 C 6,7 C 3,9 C 98 % 1027,9 hPa 0,0 l/m 0 min 0 min 84 W/m 6,4 km/h (2 Bft) 100,00 %
03.01.2023 10:38 6,3 C 6,7 C 3,9 C 98 % 1027,9 hPa 0,0 l/m 0 min 0 min 94 W/m 6,4 km/h (2 Bft) 96,61 %
03.01.2023 10:40 6,3 C 7,2 C 3,9 C 98 % 1027,9 hPa 0,0 l/m 0 min 0 min 91 W/m 9,7 km/h (2 Bft) 97,87 %
03.01.2023 10:42 6,3 C 7,2 C 4,4 C 98 % 1028,0 hPa 0,0 l/m 0 min 0 min 85 W/m 3,2 km/h (1 Bft) 100,00 %
03.01.2023 10:44 6,4 C 7,2 C 4,4 C 98 % 1027,9 hPa 0,0 l/m 0 min 0 min 85 W/m 6,4 km/h (2 Bft) 100,00 %
03.01.2023 10:46 6,4 C 7,2 C 4,4 C 97 % 1028,0 hPa 0,0 l/m 0 min 0 min 99 W/m 3,2 km/h (1 Bft) 100,00 %
03.01.2023 10:48 6,5 C 7,2 C 4,4 C 98 % 1028,0 hPa 0,0 l/m 2 min 0 min 134 W/m 3,2 km/h (1 Bft) 98,31 %
03.01.2023 10:50 6,5 C 7,2 C 4,4 C 98 % 1028,0 hPa 0,0 l/m 2 min 0 min 168 W/m 6,4 km/h (2 Bft) 97,14 %
03.01.2023 10:52 6,5 C 7,8 C 4,4 C 98 % 1028,0 hPa 0,0 l/m 2 min 0 min 134 W/m 16,1 km/h (3 Bft) 100,00 %
03.01.2023 10:54 6,6 C 7,8 C 4,4 C 98 % 1028,0 hPa 0,0 l/m 2 min 0 min 141 W/m 3,2 km/h (1 Bft) 100,00 %
03.01.2023 10:56 6,6 C 7,2 C 4,4 C 98 % 1028,0 hPa 0,0 l/m 2 min 0 min 220 W/m 0,0 km/h (0 Bft) 100,00 %
03.01.2023 10:58 6,7 C 7,8 C 4,4 C 97 % 1028,0 hPa 0,0 l/m 2 min 0 min 234 W/m 0,0 km/h (0 Bft) 100,00 %
03.01.2023 11:00 6,8 C 7,8 C 4,4 C 97 % 1028,0 hPa 0,0 l/m 2 min 0 min 212 W/m 0,0 km/h (0 Bft) 98,31 %
03.01.2023 11:02 6,8 C 7,8 C 4,4 C 98 % 1028,0 hPa 0,0 l/m 2 min 0 min 220 W/m 6,4 km/h (2 Bft) 97,14 %
03.01.2023 11:04 6,9 C 7,8 C 4,4 C 98 % 1028,0 hPa 0,0 l/m 2 min 0 min 131 W/m 12,9 km/h (3 Bft) 100,00 %
03.01.2023 11:06 6,9 C 8,3 C 5,0 C 97 % 1028,0 hPa 0,0 l/m 2 min 2 min 275 W/m 9,7 km/h (2 Bft) 100,00 %
03.01.2023 11:08 7,1 C 8,3 C 5,0 C 97 % 1027,9 hPa 0,0 l/m 2 min 2 min 275 W/m 12,9 km/h (3 Bft) 100,00 %
03.01.2023 11:10 7,1 C 8,3 C 4,4 C 97 % 1028,0 hPa 0,0 l/m 0 min 2 min 102 W/m 16,1 km/h (3 Bft) 98,31 %
03.01.2023 11:12 7,2 C 7,8 C 4,4 C 97 % 1028,0 hPa 0,0 l/m 0 min 0 min 76 W/m 6,4 km/h (2 Bft) 97,87 %
03.01.2023 11:14 7,2 C 7,8 C 4,4 C 97 % 1028,0 hPa 0,0 l/m 0 min 0 min 71 W/m 3,2 km/h (1 Bft) 100,00 %
03.01.2023 11:16 7,3 C 7,8 C 4,4 C 97 % 1028,0 hPa 0,0 l/m 0 min 0 min 65 W/m 16,1 km/h (3 Bft) 98,28 %
03.01.2023 11:18 7,3 C 7,8 C 4,4 C 97 % 1028,0 hPa 0,0 l/m 0 min 0 min 92 W/m 9,7 km/h (2 Bft) 97,22 %
03.01.2023 11:20 7,3 C 7,8 C 4,4 C 97 % 1028,1 hPa 0,0 l/m 0 min 0 min 107 W/m 16,1 km/h (3 Bft) 97,83 %
03.01.2023 11:22 7,3 C 7,8 C 4,4 C 97 % 1028,1 hPa 0,0 l/m 0 min 0 min 89 W/m 16,1 km/h (3 Bft) 98,31 %
03.01.2023 11:24 7,4 C 7,8 C 4,4 C 97 % 1028,1 hPa 0,0 l/m 0 min 0 min 106 W/m 9,7 km/h (2 Bft) 97,87 %
03.01.2023 11:26 7,4 C 7,8 C 4,4 C 97 % 1028,1 hPa 0,0 l/m 0 min 0 min 99 W/m 19,3 km/h (3 Bft) 97,14 %
03.01.2023 11:28 7,4 C 7,8 C 4,4 C 97 % 1028,0 hPa 0,0 l/m 0 min 0 min 84 W/m 6,4 km/h (2 Bft) 97,87 %
03.01.2023 11:30 7,5 C 7,8 C 5,0 C 97 % 1028,0 hPa 0,0 l/m 0 min 0 min 84 W/m 9,7 km/h (2 Bft) 97,87 %
03.01.2023 11:32 7,5 C 7,8 C 5,0 C 96 % 1028,0 hPa 0,0 l/m 0 min 0 min 79 W/m 12,9 km/h (3 Bft) 97,83 %
03.01.2023 11:34 7,6 C 7,8 C 5,0 C 96 % 1028,0 hPa 0,0 l/m 0 min 0 min 71 W/m 9,7 km/h (2 Bft) 97,87 %
03.01.2023 11:36 7,6 C 7,8 C 5,0 C 96 % 1028,0 hPa 0,0 l/m 0 min 0 min 63 W/m 12,9 km/h (3 Bft) 93,62 %
03.01.2023 11:38 7,6 C 7,8 C 5,0 C 96 % 1028,0 hPa 0,0 l/m 0 min 0 min 60 W/m 6,4 km/h (2 Bft) 93,22 %
03.01.2023 11:40 7,6 C 7,8 C 5,0 C 96 % 1028,0 hPa 0,0 l/m 0 min 0 min 54 W/m 9,7 km/h (2 Bft) 97,14 %
03.01.2023 11:42 7,7 C 7,8 C 5,0 C 96 % 1027,9 hPa 0,0 l/m 0 min 0 min 56 W/m 6,4 km/h (2 Bft) 89,13 %
03.01.2023 11:44 7,7 C 7,8 C 5,0 C 96 % 1027,9 hPa 0,0 l/m 0 min 0 min 62 W/m 9,7 km/h (2 Bft) 95,74 %
03.01.2023 11:46 7,7 C 7,8 C 5,0 C 96 % 1027,9 hPa 0,0 l/m 0 min 0 min 60 W/m 6,4 km/h (2 Bft) 93,62 %
03.01.2023 11:48 7,8 C 7,8 C 5,0 C 96 % 1027,9 hPa 0,0 l/m 0 min 0 min 54 W/m 19,3 km/h (3 Bft) 93,22 %
03.01.2023 11:50 7,8 C 7,8 C 5,0 C 96 % 1027,9 hPa 0,0 l/m 0 min 0 min 55 W/m 9,7 km/h (2 Bft) 94,29 %
03.01.2023 11:52 7,8 C 7,8 C 5,0 C 96 % 1027,9 hPa 0,0 l/m 0 min 0 min 51 W/m 16,1 km/h (3 Bft) 96,55 %
03.01.2023 11:54 7,9 C 7,8 C 5,0 C 95 % 1027,9 hPa 0,0 l/m 0 min 0 min 48 W/m 12,9 km/h (3 Bft) 94,44 %
03.01.2023 11:56 7,9 C 7,8 C 5,0 C 95 % 1027,9 hPa 0,0 l/m 0 min 0 min 47 W/m 12,9 km/h (3 Bft) 93,48 %
03.01.2023 11:58 8,0 C 7,8 C 5,0 C 95 % 1027,9 hPa 0,0 l/m 0 min 0 min 54 W/m 9,7 km/h (2 Bft) 97,87 %
03.01.2023 12:00 8,1 C 7,8 C 5,0 C 95 % 1027,8 hPa 0,0 l/m 0 min 0 min 57 W/m 16,1 km/h (3 Bft) 95,74 %
03.01.2023 12:02 8,1 C 7,8 C 5,6 C 95 % 1027,8 hPa 0,0 l/m 0 min 0 min 51 W/m 16,1 km/h (3 Bft) 93,62 %
03.01.2023 12:04 8,2 C 7,8 C 5,6 C 95 % 1027,8 hPa 0,0 l/m 0 min 0 min 51 W/m 12,9 km/h (3 Bft) 91,49 %
03.01.2023 12:08 8,2 C 8,3 C 5,6 C 95 % 1027,8 hPa 0,0 l/m 0 min 0 min 51 W/m 12,9 km/h (3 Bft) 94,62 %
03.01.2023 12:10 8,3 C 8,3 C 5,6 C 94 % 1027,8 hPa 0,0 l/m 0 min 0 min 52 W/m 12,9 km/h (3 Bft) 97,87 %
03.01.2023 12:12 8,3 C 8,3 C 5,6 C 94 % 1027,8 hPa 0,0 l/m 0 min 0 min 57 W/m 16,1 km/h (3 Bft) 95,74 %
03.01.2023 12:14 8,3 C 8,3 C 5,6 C 94 % 1027,8 hPa 0,0 l/m 0 min 0 min 48 W/m 16,1 km/h (3 Bft) 97,87 %
03.01.2023 12:16 8,4 C 8,3 C 5,6 C 94 % 1027,8 hPa 0,0 l/m 0 min 0 min 45 W/m 9,7 km/h (2 Bft) 93,62 %
03.01.2023 12:18 8,4 C 8,3 C 5,6 C 94 % 1027,7 hPa 0,0 l/m 0 min 0 min 49 W/m 12,9 km/h (3 Bft) 95,65 %
03.01.2023 12:20 8,4 C 8,3 C 5,6 C 94 % 1027,7 hPa 0,0 l/m 0 min 0 min 48 W/m 16,1 km/h (3 Bft) 93,62 %
03.01.2023 12:22 8,5 C 8,3 C 5,6 C 93 % 1027,8 hPa 0,0 l/m 0 min 0 min 46 W/m 12,9 km/h (3 Bft) 95,74 %
03.01.2023 12:24 8,5 C 8,3 C 5,6 C 93 % 1027,8 hPa 0,0 l/m 0 min 0 min 70 W/m 16,1 km/h (3 Bft) 97,87 %
03.01.2023 12:26 8,6 C 8,3 C 5,6 C 93 % 1027,8 hPa 0,0 l/m 0 min 0 min 75 W/m 16,1 km/h (3 Bft) 76,60 %
03.01.2023 12:28 8,6 C 8,3 C 5,6 C 93 % 1027,8 hPa 0,0 l/m 0 min 0 min 75 W/m 16,1 km/h (3 Bft) 76,60 %
03.01.2023 12:30 8,6 C 8,3 C 5,6 C 93 % 1027,7 hPa 0,0 l/m 0 min 0 min 73 W/m 12,9 km/h (3 Bft) 95,74 %
03.01.2023 12:32 8,7 C 8,3 C 6,1 C 93 % 1027,8 hPa 0,0 l/m 0 min 0 min 75 W/m 19,3 km/h (3 Bft) 95,65 %
03.01.2023 12:34 8,7 C 8,9 C 6,1 C 92 % 1027,7 hPa 0,0 l/m 0 min 0 min 82 W/m 16,1 km/h (3 Bft) 97,87 %
03.01.2023 12:36 8,7 C 8,9 C 6,1 C 92 % 1027,7 hPa 0,0 l/m 0 min 0 min 90 W/m 12,9 km/h (3 Bft) 95,74 %
03.01.2023 12:38 8,7 C 8,9 C 6,1 C 92 % 1027,7 hPa 0,0 l/m 0 min 0 min 116 W/m 16,1 km/h (3 Bft) 95,74 %
03.01.2023 12:40 8,8 C 8,9 C 6,1 C 92 % 1027,7 hPa 0,0 l/m 0 min 0 min 116 W/m 19,3 km/h (3 Bft) 97,87 %
03.01.2023 12:42 8,8 C 8,9 C 6,1 C 92 % 1027,7 hPa 0,0 l/m 0 min 0 min 119 W/m 19,3 km/h (3 Bft) 97,83 %
03.01.2023 12:44 8,9 C 9,4 C 6,1 C 91 % 1027,7 hPa 0,0 l/m 0 min 0 min 120 W/m 12,9 km/h (3 Bft) 97,87 %
03.01.2023 12:46 8,9 C 9,4 C 6,1 C 91 % 1027,7 hPa 0,0 l/m 0 min 0 min 149 W/m 19,3 km/h (3 Bft) 95,74 %
03.01.2023 12:48 9,0 C 9,4 C 6,1 C 91 % 1027,6 hPa 0,0 l/m 0 min 0 min 123 W/m 19,3 km/h (3 Bft) 95,74 %
03.01.2023 12:50 9,1 C 9,4 C 6,1 C 91 % 1027,5 hPa 0,0 l/m 0 min 0 min 114 W/m 22,5 km/h (4 Bft) 95,74 %
03.01.2023 12:52 9,1 C 9,4 C 6,1 C 90 % 1027,6 hPa 0,0 l/m 0 min 0 min 113 W/m 29,0 km/h (5 Bft) 97,87 %
03.01.2023 12:54 9,1 C 9,4 C 6,1 C 90 % 1027,5 hPa 0,0 l/m 0 min 0 min 104 W/m 25,7 km/h (4 Bft) 100,00 %
03.01.2023 12:56 9,1 C 9,4 C 6,1 C 90 % 1027,5 hPa 0,0 l/m 0 min 0 min 113 W/m 19,3 km/h (3 Bft) 100,00 %
03.01.2023 12:58 9,2 C 9,4 C 6,1 C 90 % 1027,5 hPa 0,0 l/m 0 min 0 min 114 W/m 12,9 km/h (3 Bft) 100,00 %
03.01.2023 13:00 9,2 C 9,4 C 6,1 C 90 % 1027,5 hPa 0,0 l/m 0 min 0 min 113 W/m 19,3 km/h (3 Bft) 100,00 %
03.01.2023 13:02 9,2 C 9,4 C 6,1 C 89 % 1027,4 hPa 0,0 l/m 0 min 0 min 114 W/m 16,1 km/h (3 Bft) 100,00 %
03.01.2023 13:04 9,3 C 9,4 C 6,7 C 89 % 1027,4 hPa 0,0 l/m 0 min 0 min 118 W/m 12,9 km/h (3 Bft) 97,87 %
03.01.2023 13:06 9,3 C 9,4 C 6,7 C 89 % 1027,3 hPa 0,0 l/m 0 min 0 min 115 W/m 19,3 km/h (3 Bft) 100,00 %
03.01.2023 13:08 9,3 C 9,4 C 6,7 C 89 % 1027,3 hPa 0,0 l/m 0 min 0 min 114 W/m 32,2 km/h (5 Bft) 97,87 %
03.01.2023 13:10 9,3 C 9,4 C 6,7 C 89 % 1027,3 hPa 0,0 l/m 0 min 0 min 114 W/m 19,3 km/h (3 Bft) 97,14 %
03.01.2023 13:12 9,3 C 9,4 C 6,7 C 89 % 1027,3 hPa 0,0 l/m 0 min 0 min 95 W/m 16,1 km/h (3 Bft) 100,00 %
03.01.2023 13:14 9,3 C 9,4 C 6,7 C 88 % 1027,3 hPa 0,0 l/m 0 min 0 min 99 W/m 29,0 km/h (5 Bft) 100,00 %
03.01.2023 13:16 9,3 C 9,4 C 6,7 C 88 % 1027,2 hPa 0,0 l/m 0 min 0 min 94 W/m 29,0 km/h (5 Bft) 100,00 %
03.01.2023 13:18 9,3 C 9,4 C 6,7 C 88 % 1027,2 hPa 0,0 l/m 0 min 0 min 121 W/m 32,2 km/h (5 Bft) 97,83 %
03.01.2023 13:20 9,4 C 10,0 C 6,7 C 88 % 1027,2 hPa 0,0 l/m 0 min 0 min 130 W/m 25,7 km/h (4 Bft) 100,00 %
03.01.2023 13:22 9,4 C 10,0 C 6,7 C 88 % 1027,2 hPa 0,0 l/m 0 min 0 min 129 W/m 25,7 km/h (4 Bft) 100,00 %
03.01.2023 13:24 9,5 C 10,0 C 6,7 C 87 % 1027,2 hPa 0,0 l/m 0 min 0 min 104 W/m 19,3 km/h (3 Bft) 95,74 %
03.01.2023 13:26 9,5 C 10,0 C 6,7 C 88 % 1027,1 hPa 0,0 l/m 0 min 0 min 120 W/m 19,3 km/h (3 Bft) 100,00 %
03.01.2023 13:28 9,5 C 10,0 C 6,7 C 87 % 1027,1 hPa 0,0 l/m 0 min 0 min 102 W/m 22,5 km/h (4 Bft) 100,00 %
03.01.2023 13:30 9,6 C 9,4 C 6,7 C 87 % 1027,2 hPa 0,0 l/m 0 min 0 min 85 W/m 29,0 km/h (5 Bft) 97,83 %
03.01.2023 13:32 9,5 C 9,4 C 6,7 C 87 % 1027,1 hPa 0,0 l/m 0 min 0 min 106 W/m 12,9 km/h (3 Bft) 100,00 %
03.01.2023 13:34 9,6 C 10,0 C 6,7 C 87 % 1027,1 hPa 0,0 l/m 0 min 0 min 109 W/m 12,9 km/h (3 Bft) 100,00 %
03.01.2023 13:36 9,6 C 9,4 C 6,7 C 87 % 1027,2 hPa 0,0 l/m 0 min 0 min 97 W/m 19,3 km/h (3 Bft) 97,87 %
03.01.2023 13:38 9,6 C 9,4 C 6,1 C 87 % 1027,2 hPa 0,0 l/m 0 min 0 min 105 W/m 12,9 km/h (3 Bft) 100,00 %
03.01.2023 13:40 9,6 C 10,6 C 6,1 C 87 % 1027,1 hPa 0,0 l/m 0 min 0 min 123 W/m 12,9 km/h (3 Bft) 100,00 %
03.01.2023 13:42 9,6 C 10,6 C 6,1 C 87 % 1027,1 hPa 0,0 l/m 0 min 0 min 115 W/m 22,5 km/h (4 Bft) 97,83 %
03.01.2023 13:44 9,6 C 10,0 C 6,1 C 87 % 1027,1 hPa 0,0 l/m 0 min 0 min 81 W/m 25,7 km/h (4 Bft) 100,00 %
03.01.2023 13:46 9,6 C 9,4 C 6,1 C 87 % 1027,1 hPa 0,0 l/m 0 min 0 min 62 W/m 35,4 km/h (5 Bft) 100,00 %
03.01.2023 13:48 9,6 C 9,4 C 6,1 C 87 % 1027,1 hPa 0,0 l/m 0 min 0 min 73 W/m 12,9 km/h (3 Bft) 97,87 %
03.01.2023 13:50 9,6 C 9,4 C 6,1 C 87 % 1027,1 hPa 0,0 l/m 0 min 0 min 54 W/m 19,3 km/h (3 Bft) 97,87 %
03.01.2023 13:52 9,5 C 9,4 C 6,1 C 86 % 1027,1 hPa 0,0 l/m 0 min 0 min 55 W/m 16,1 km/h (3 Bft) 100,00 %
03.01.2023 13:54 9,4 C 8,9 C 6,1 C 86 % 1027,1 hPa 0,0 l/m 0 min 0 min 42 W/m 16,1 km/h (3 Bft) 100,00 %
03.01.2023 13:56 9,4 C 8,9 C 6,1 C 86 % 1027,1 hPa 0,0 l/m 0 min 0 min 47 W/m 12,9 km/h (3 Bft) 100,00 %
03.01.2023 13:58 9,4 C 8,9 C 6,1 C 86 % 1027,1 hPa 0,0 l/m 0 min 0 min 53 W/m 22,5 km/h (4 Bft) 97,87 %
03.01.2023 14:00 9,4 C 8,9 C 6,1 C 86 % 1027,1 hPa 0,0 l/m 0 min 0 min 50 W/m 19,3 km/h (3 Bft) 100,00 %
03.01.2023 14:02 9,4 C 8,9 C 6,1 C 86 % 1027,1 hPa 0,0 l/m 0 min 0 min 40 W/m 29,0 km/h (5 Bft) 95,74 %
03.01.2023 14:04 9,3 C 8,9 C 6,1 C 86 % 1027,1 hPa 0,0 l/m 0 min 0 min 46 W/m 19,3 km/h (3 Bft) 100,00 %
03.01.2023 14:06 9,3 C 8,9 C 6,1 C 86 % 1027,2 hPa 0,0 l/m 0 min 0 min 50 W/m 25,7 km/h (4 Bft) 94,83 %
03.01.2023 14:08 9,3 C 8,9 C 6,1 C 86 % 1027,2 hPa 0,0 l/m 0 min 0 min 61 W/m 32,2 km/h (5 Bft) 97,14 %
03.01.2023 14:10 9,3 C 8,9 C 6,1 C 86 % 1027,1 hPa 0,0 l/m 0 min 0 min 60 W/m 16,1 km/h (3 Bft) 97,87 %
03.01.2023 14:12 9,3 C 8,9 C 6,1 C 86 % 1027,1 hPa 0,0 l/m 0 min 0 min 52 W/m 16,1 km/h (3 Bft) 97,87 %
03.01.2023 14:14 9,3 C 8,9 C 6,1 C 86 % 1027,1 hPa 0,0 l/m 0 min 0 min 56 W/m 12,9 km/h (3 Bft) 56,52 %
03.01.2023 14:16 9,3 C 8,9 C 6,1 C 86 % 1027,0 hPa 0,0 l/m 0 min 0 min 55 W/m 19,3 km/h (3 Bft) 95,74 %
03.01.2023 14:18 9,2 C 8,9 C 6,1 C 86 % 1027,0 hPa 0,0 l/m 0 min 0 min 56 W/m 16,1 km/h (3 Bft) 97,83 %
03.01.2023 14:20 9,2 C 8,9 C 6,1 C 86 % 1027,1 hPa 0,0 l/m 0 min 0 min 63 W/m 19,3 km/h (3 Bft) 95,74 %
03.01.2023 14:22 9,2 C 8,9 C 6,1 C 86 % 1027,0 hPa 0,0 l/m 0 min 0 min 89 W/m 22,5 km/h (4 Bft) 95,74 %
03.01.2023 14:24 9,2 C 8,9 C 6,1 C 86 % 1027,0 hPa 0,0 l/m 0 min 0 min 88 W/m 16,1 km/h (3 Bft) 91,49 %
03.01.2023 14:26 9,2 C 8,9 C 6,1 C 86 % 1027,0 hPa 0,0 l/m 0 min 0 min 72 W/m 12,9 km/h (3 Bft) 89,36 %
03.01.2023 14:28 9,2 C 8,9 C 6,1 C 86 % 1027,0 hPa 0,0 l/m 0 min 0 min 79 W/m 16,1 km/h (3 Bft) 93,62 %
03.01.2023 14:30 9,2 C 8,9 C 6,1 C 86 % 1027,0 hPa 0,0 l/m 0 min 0 min 72 W/m 25,7 km/h (4 Bft) 93,48 %
03.01.2023 14:32 9,2 C 8,9 C 6,1 C 86 % 1027,0 hPa 0,0 l/m 0 min 0 min 54 W/m 6,4 km/h (2 Bft) 89,36 %
03.01.2023 14:34 9,2 C 8,9 C 6,1 C 86 % 1026,9 hPa 0,0 l/m 0 min 0 min 61 W/m 12,9 km/h (3 Bft) 93,62 %
03.01.2023 14:36 9,2 C 9,4 C 6,1 C 86 % 1026,9 hPa 0,0 l/m 2 min 0 min 156 W/m 22,5 km/h (4 Bft) 91,49 %
03.01.2023 14:38 9,3 C 9,4 C 6,1 C 87 % 1026,9 hPa 0,0 l/m 2 min 0 min 175 W/m 12,9 km/h (3 Bft) 93,62 %
03.01.2023 14:40 9,3 C 9,4 C 6,1 C 87 % 1026,8 hPa 0,0 l/m 2 min 0 min 141 W/m 19,3 km/h (3 Bft) 93,62 %
03.01.2023 14:42 9,3 C 9,4 C 6,1 C 86 % 1026,8 hPa 0,0 l/m 0 min 0 min 83 W/m 22,5 km/h (4 Bft) 93,48 %
03.01.2023 14:44 9,3 C 9,4 C 6,1 C 86 % 1026,8 hPa 0,0 l/m 2 min 0 min 111 W/m 19,3 km/h (3 Bft) 91,49 %
03.01.2023 14:46 9,3 C 9,4 C 6,1 C 86 % 1026,9 hPa 0,0 l/m 0 min 0 min 84 W/m 22,5 km/h (4 Bft) 95,74 %
03.01.2023 14:48 9,3 C 9,4 C 6,1 C 86 % 1026,8 hPa 0,0 l/m 2 min 0 min 119 W/m 25,7 km/h (4 Bft) 91,49 %
03.01.2023 14:50 9,4 C 9,4 C 6,1 C 86 % 1026,8 hPa 0,0 l/m 2 min 0 min 141 W/m 25,7 km/h (4 Bft) 93,62 %
03.01.2023 14:52 9,4 C 9,4 C 6,1 C 85 % 1026,8 hPa 0,0 l/m 2 min 0 min 145 W/m 25,7 km/h (4 Bft) 91,49 %
03.01.2023 14:54 9,4 C 9,4 C 6,1 C 85 % 1026,8 hPa 0,0 l/m 2 min 0 min 109 W/m 19,3 km/h (3 Bft) 97,83 %
03.01.2023 14:56 9,4 C 8,9 C 6,1 C 85 % 1026,8 hPa 0,0 l/m 2 min 0 min 102 W/m 29,0 km/h (5 Bft) 97,87 %
03.01.2023 14:58 9,4 C 8,9 C 5,6 C 85 % 1026,9 hPa 0,0 l/m 0 min 0 min 62 W/m 16,1 km/h (3 Bft) 97,87 %
03.01.2023 15:00 9,4 C 8,9 C 5,6 C 84 % 1026,9 hPa 0,0 l/m 0 min 0 min 41 W/m 29,0 km/h (5 Bft) 97,87 %
03.01.2023 15:02 9,4 C 8,9 C 5,6 C 84 % 1027,0 hPa 0,0 l/m 0 min 0 min 48 W/m 25,7 km/h (4 Bft) 97,87 %
03.01.2023 15:04 9,3 C 8,9 C 5,6 C 84 % 1027,0 hPa 0,0 l/m 0 min 0 min 44 W/m 22,5 km/h (4 Bft) 93,62 %
03.01.2023 15:06 9,3 C 8,9 C 5,6 C 84 % 1026,9 hPa 0,0 l/m 0 min 0 min 60 W/m 16,1 km/h (3 Bft) 98,28 %
03.01.2023 15:08 9,2 C 8,9 C 5,6 C 84 % 1027,0 hPa 0,0 l/m 0 min 0 min 63 W/m 22,5 km/h (4 Bft) 97,87 %
03.01.2023 15:10 9,2 C 8,9 C 5,6 C 84 % 1027,0 hPa 0,0 l/m 0 min 0 min 60 W/m 19,3 km/h (3 Bft) 100,00 %
03.01.2023 15:12 9,2 C 8,9 C 5,6 C 84 % 1027,0 hPa 0,0 l/m 0 min 0 min 58 W/m 29,0 km/h (5 Bft) 97,87 %
03.01.2023 15:14 9,2 C 8,9 C 5,6 C 84 % 1027,0 hPa 0,0 l/m 0 min 0 min 60 W/m 35,4 km/h (5 Bft) 100,00 %
03.01.2023 15:16 9,2 C 8,9 C 5,6 C 84 % 1027,0 hPa 0,0 l/m 0 min 0 min 54 W/m 32,2 km/h (5 Bft) 100,00 %
03.01.2023 15:18 9,2 C 8,9 C 5,6 C 84 % 1026,9 hPa 0,0 l/m 0 min 0 min 60 W/m 25,7 km/h (4 Bft) 97,87 %
03.01.2023 15:20 9,2 C 8,9 C 5,6 C 84 % 1026,9 hPa 0,0 l/m 0 min 0 min 58 W/m 22,5 km/h (4 Bft) 100,00 %
03.01.2023 15:22 9,2 C 8,9 C 5,6 C 84 % 1026,9 hPa 0,0 l/m 0 min 0 min 48 W/m 22,5 km/h (4 Bft) 100,00 %
03.01.2023 15:24 9,2 C 8,9 C 5,6 C 84 % 1026,9 hPa 0,0 l/m 0 min 0 min 51 W/m 25,7 km/h (4 Bft) 100,00 %
03.01.2023 15:26 9,2 C 8,9 C 5,6 C 84 % 1026,8 hPa 0,0 l/m 0 min 0 min 52 W/m 22,5 km/h (4 Bft) 100,00 %
03.01.2023 15:28 9,2 C 8,9 C 5,6 C 84 % 1026,8 hPa 0,0 l/m 0 min 0 min 56 W/m 16,1 km/h (3 Bft) 100,00 %
03.01.2023 15:30 9,2 C 8,9 C 5,6 C 84 % 1026,9 hPa 0,0 l/m 0 min 0 min 56 W/m 19,3 km/h (3 Bft) 100,00 %
03.01.2023 15:32 9,2 C 8,9 C 5,6 C 84 % 1026,9 hPa 0,0 l/m 0 min 0 min 54 W/m 19,3 km/h (3 Bft) 100,00 %
03.01.2023 15:34 9,2 C 8,9 C 5,6 C 84 % 1026,8 hPa 0,0 l/m 0 min 0 min 55 W/m 19,3 km/h (3 Bft) 100,00 %
03.01.2023 15:36 9,2 C 8,9 C 5,6 C 84 % 1027,0 hPa 0,0 l/m 0 min 0 min 51 W/m 16,1 km/h (3 Bft) 100,00 %
03.01.2023 15:38 9,2 C 8,9 C 5,6 C 84 % 1027,0 hPa 0,0 l/m 0 min 0 min 44 W/m 16,1 km/h (3 Bft) 100,00 %
03.01.2023 15:40 9,2 C 8,9 C 5,6 C 84 % 1027,0 hPa 0,0 l/m 0 min 0 min 49 W/m 16,1 km/h (3 Bft) 100,00 %
03.01.2023 15:42 9,2 C 8,9 C 5,6 C 84 % 1027,0 hPa 0,0 l/m 2 min 0 min 57 W/m 6,4 km/h (2 Bft) 100,00 %
03.01.2023 15:44 9,2 C 8,9 C 5,6 C 84 % 1027,0 hPa 0,0 l/m 0 min 0 min 47 W/m 22,5 km/h (4 Bft) 100,00 %
03.01.2023 15:46 9,2 C 8,9 C 5,6 C 84 % 1027,0 hPa 0,0 l/m 0 min 0 min 42 W/m 16,1 km/h (3 Bft) 97,87 %
03.01.2023 15:48 9,2 C 8,3 C 5,6 C 84 % 1026,9 hPa 0,0 l/m 0 min 0 min 32 W/m 16,1 km/h (3 Bft) 100,00 %
03.01.2023 15:50 9,2 C 8,3 C 5,6 C 84 % 1027,0 hPa 0,0 l/m 0 min 0 min 28 W/m 19,3 km/h (3 Bft) 97,87 %
03.01.2023 15:52 9,1 C 8,3 C 5,6 C 84 % 1027,0 hPa 0,0 l/m 0 min 0 min 26 W/m 12,9 km/h (3 Bft) 97,83 %
03.01.2023 15:54 9,1 C 8,3 C 5,6 C 84 % 1027,0 hPa 0,0 l/m 0 min 0 min 26 W/m 16,1 km/h (3 Bft) 100,00 %
03.01.2023 15:56 9,1 C 8,3 C 5,0 C 84 % 1027,0 hPa 0,0 l/m 0 min 0 min 25 W/m 16,1 km/h (3 Bft) 100,00 %
03.01.2023 15:58 9,1 C 8,3 C 5,6 C 84 % 1027,0 hPa 0,0 l/m 0 min 0 min 23 W/m 29,0 km/h (5 Bft) 100,00 %
03.01.2023 16:00 9,1 C 8,3 C 5,0 C 84 % 1027,0 hPa 0,0 l/m 0 min 0 min 21 W/m 19,3 km/h (3 Bft) 100,00 %
03.01.2023 16:02 9,1 C 8,3 C 5,0 C 84 % 1027,0 hPa 0,0 l/m 0 min 0 min 21 W/m 12,9 km/h (3 Bft) 56,52 %
03.01.2023 16:04 9,1 C 8,3 C 5,0 C 84 % 1026,9 hPa 0,0 l/m 0 min 0 min 20 W/m 12,9 km/h (3 Bft) 100,00 %
03.01.2023 16:06 9,0 C 8,3 C 5,0 C 84 % 1027,0 hPa 0,0 l/m 0 min 0 min 18 W/m 9,7 km/h (2 Bft) 100,00 %
03.01.2023 16:08 9,0 C 7,8 C 5,0 C 84 % 1027,0 hPa 0,0 l/m 0 min 0 min 17 W/m 6,4 km/h (2 Bft) 100,00 %
03.01.2023 16:10 8,9 C 7,8 C 5,0 C 84 % 1027,1 hPa 0,0 l/m 0 min 0 min 15 W/m 9,7 km/h (2 Bft) 97,87 %
03.01.2023 16:12 8,9 C 7,8 C 5,0 C 84 % 1027,1 hPa 0,0 l/m 0 min 0 min 14 W/m 12,9 km/h (3 Bft) 95,74 %
03.01.2023 16:14 8,9 C 7,8 C 5,0 C 84 % 1027,0 hPa 0,0 l/m 0 min 0 min 12 W/m 19,3 km/h (3 Bft) 97,87 %
03.01.2023 16:16 8,9 C 7,8 C 5,0 C 84 % 1027,0 hPa 0,0 l/m 0 min 0 min 12 W/m 12,9 km/h (3 Bft) 100,00 %
03.01.2023 16:18 8,8 C 7,8 C 5,0 C 84 % 1027,0 hPa 0,0 l/m 0 min 0 min 11 W/m 16,1 km/h (3 Bft) 97,87 %
03.01.2023 16:20 8,8 C 7,8 C 5,0 C 84 % 1027,0 hPa 0,0 l/m 0 min 0 min 11 W/m 9,7 km/h (2 Bft) 100,00 %
03.01.2023 16:22 8,8 C 7,8 C 4,4 C 84 % 1026,9 hPa 0,0 l/m 0 min 0 min 10 W/m 9,7 km/h (2 Bft) 95,74 %
03.01.2023 16:24 8,8 C 7,8 C 4,4 C 84 % 1027,0 hPa 0,0 l/m 0 min 0 min 9 W/m 9,7 km/h (2 Bft) 95,74 %
03.01.2023 16:26 8,7 C 7,8 C 4,4 C 84 % 1026,9 hPa 0,0 l/m 0 min 0 min 9 W/m 6,4 km/h (2 Bft) 97,87 %
03.01.2023 16:28 8,7 C 7,2 C 4,4 C 84 % 1027,0 hPa 0,0 l/m 0 min 0 min 8 W/m 9,7 km/h (2 Bft) 97,83 %
03.01.2023 16:30 8,7 C 7,2 C 4,4 C 84 % 1027,0 hPa 0,0 l/m 0 min 0 min 7 W/m 6,4 km/h (2 Bft) 97,87 %
03.01.2023 16:32 8,6 C 7,2 C 4,4 C 84 % 1027,0 hPa 0,0 l/m 0 min 0 min 6 W/m 9,7 km/h (2 Bft) 95,74 %
03.01.2023 16:34 8,6 C 7,2 C 4,4 C 85 % 1026,9 hPa 0,0 l/m 0 min 0 min 5 W/m 9,7 km/h (2 Bft) 95,74 %
03.01.2023 16:36 8,6 C 7,2 C 4,4 C 85 % 1027,0 hPa 0,0 l/m 0 min 0 min 3 W/m 6,4 km/h (2 Bft) 95,74 %
03.01.2023 16:38 8,5 C 7,2 C 4,4 C 85 % 1026,9 hPa 0,0 l/m 0 min 0 min 0 W/m 3,2 km/h (1 Bft) 95,74 %
03.01.2023 16:40 8,5 C 7,2 C 4,4 C 85 % 1026,9 hPa 0,0 l/m 0 min 0 min 0 W/m 3,2 km/h (1 Bft) 95,65 %
03.01.2023 16:42 8,4 C 7,2 C 4,4 C 85 % 1026,9 hPa 0,0 l/m 0 min 0 min 0 W/m 3,2 km/h (1 Bft) 93,62 %
03.01.2023 16:44 8,4 C 7,2 C 4,4 C 85 % 1026,9 hPa 0,0 l/m 0 min 0 min 0 W/m 6,4 km/h (2 Bft) 95,74 %
03.01.2023 16:46 8,4 C 7,2 C 4,4 C 85 % 1026,9 hPa 0,0 l/m 0 min 0 min 0 W/m 6,4 km/h (2 Bft) 93,62 %
03.01.2023 16:48 8,3 C 7,2 C 4,4 C 85 % 1026,9 hPa 0,0 l/m 0 min 0 min 0 W/m 6,4 km/h (2 Bft) 93,62 %
03.01.2023 16:50 8,3 C 6,7 C 3,9 C 85 % 1027,0 hPa 0,0 l/m 0 min 0 min 0 W/m 6,4 km/h (2 Bft) 95,74 %
03.01.2023 16:52 8,3 C 6,7 C 3,9 C 85 % 1027,1 hPa 0,0 l/m 0 min 0 min 0 W/m 3,2 km/h (1 Bft) 95,65 %
03.01.2023 16:54 8,2 C 6,7 C 3,9 C 85 % 1027,0 hPa 0,0 l/m 0 min 0 min 0 W/m 6,4 km/h (2 Bft) 97,87 %
03.01.2023 16:56 8,2 C 6,7 C 3,9 C 85 % 1026,9 hPa 0,0 l/m 0 min 0 min 0 W/m 6,4 km/h (2 Bft) 95,74 %
03.01.2023 16:58 8,2 C 6,7 C 3,9 C 85 % 1026,9 hPa 0,0 l/m 0 min 0 min 0 W/m 6,4 km/h (2 Bft) 93,62 %
03.01.2023 17:00 8,1 C 6,7 C 3,9 C 85 % 1026,9 hPa 0,0 l/m 0 min 0 min 0 W/m 6,4 km/h (2 Bft) 100,00 %
03.01.2023 17:02 8,1 C 6,7 C 3,9 C 86 % 1026,9 hPa 0,0 l/m 0 min 0 min 0 W/m 12,9 km/h (3 Bft) 95,74 %
03.01.2023 17:04 8,1 C 6,7 C 3,9 C 86 % 1026,9 hPa 0,0 l/m 0 min 0 min 0 W/m 12,9 km/h (3 Bft) 95,65 %
03.01.2023 17:06 8,0 C 6,7 C 3,9 C 86 % 1026,9 hPa 0,0 l/m 0 min 0 min 0 W/m 6,4 km/h (2 Bft) 96,61 %
03.01.2023 17:08 7,9 C 6,7 C 3,9 C 86 % 1026,9 hPa 0,0 l/m 0 min 0 min 0 W/m 6,4 km/h (2 Bft) 97,14 %
03.01.2023 17:10 7,9 C 6,7 C 3,9 C 86 % 1026,9 hPa 0,0 l/m 0 min 0 min 0 W/m 6,4 km/h (2 Bft) 98,18 %
03.01.2023 17:12 7,9 C 6,7 C 3,9 C 86 % 1026,9 hPa 0,0 l/m 0 min 0 min 0 W/m 12,9 km/h (3 Bft) 95,65 %
03.01.2023 17:14 7,9 C 6,7 C 3,9 C 86 % 1026,9 hPa 0,0 l/m 0 min 0 min 0 W/m 6,4 km/h (2 Bft) 95,74 %
03.01.2023 17:16 7,8 C 6,7 C 3,9 C 86 % 1027,0 hPa 0,0 l/m 0 min 0 min 0 W/m 6,4 km/h (2 Bft) 95,74 %
03.01.2023 17:18 7,8 C 6,7 C 3,9 C 86 % 1026,9 hPa 0,0 l/m 0 min 0 min 0 W/m 12,9 km/h (3 Bft) 93,62 %
03.01.2023 17:20 7,8 C 6,7 C 3,9 C 87 % 1026,9 hPa 0,0 l/m 0 min 0 min 0 W/m 6,4 km/h (2 Bft) 97,87 %
03.01.2023 17:22 7,8 C 6,7 C 3,9 C 87 % 1026,9 hPa 0,0 l/m 0 min 0 min 0 W/m 6,4 km/h (2 Bft) 95,65 %
03.01.2023 17:24 7,8 C 6,7 C 3,9 C 87 % 1026,9 hPa 0,0 l/m 0 min 0 min 0 W/m 12,9 km/h (3 Bft) 95,74 %
03.01.2023 17:26 7,7 C 6,7 C 3,9 C 87 % 1026,9 hPa 0,0 l/m 0 min 0 min 0 W/m 6,4 km/h (2 Bft) 95,74 %
03.01.2023 17:28 7,7 C 6,7 C 3,9 C 87 % 1026,9 hPa 0,0 l/m 0 min 0 min 0 W/m 6,4 km/h (2 Bft) 95,74 %
03.01.2023 17:30 7,7 C 6,7 C 3,9 C 87 % 1026,9 hPa 0,0 l/m 0 min 0 min 0 W/m 6,4 km/h (2 Bft) 97,87 %
03.01.2023 17:32 7,7 C 6,7 C 3,9 C 87 % 1026,8 hPa 0,0 l/m 0 min 0 min 0 W/m 9,7 km/h (2 Bft) 97,87 %
03.01.2023 17:34 7,6 C 6,7 C 3,9 C 87 % 1026,8 hPa 0,0 l/m 0 min 0 min 0 W/m 6,4 km/h (2 Bft) 93,62 %
03.01.2023 17:36 7,6 C 6,7 C 3,9 C 87 % 1026,9 hPa 0,0 l/m 0 min 0 min 0 W/m 6,4 km/h (2 Bft) 97,83 %
03.01.2023 17:38 7,6 C 6,7 C 3,9 C 87 % 1026,9 hPa 0,0 l/m 0 min 0 min 0 W/m 3,2 km/h (1 Bft) 97,87 %
03.01.2023 17:40 7,6 C 6,7 C 3,9 C 87 % 1026,9 hPa 0,0 l/m 0 min 0 min 0 W/m 6,4 km/h (2 Bft) 97,87 %
03.01.2023 17:42 7,6 C 6,7 C 3,3 C 87 % 1026,9 hPa 0,0 l/m 0 min 0 min 0 W/m 9,7 km/h (2 Bft) 97,87 %
03.01.2023 17:44 7,5 C 6,7 C 3,3 C 87 % 1026,8 hPa 0,0 l/m 0 min 0 min 0 W/m 12,9 km/h (3 Bft) 95,74 %
03.01.2023 17:46 7,5 C 6,7 C 3,9 C 87 % 1026,8 hPa 0,0 l/m 0 min 0 min 0 W/m 12,9 km/h (3 Bft) 97,87 %
03.01.2023 17:48 7,4 C 6,7 C 3,9 C 87 % 1026,8 hPa 0,0 l/m 0 min 0 min 0 W/m 12,9 km/h (3 Bft) 97,83 %
03.01.2023 17:50 7,4 C 6,7 C 3,9 C 88 % 1026,8 hPa 0,0 l/m 0 min 0 min 0 W/m 12,9 km/h (3 Bft) 97,87 %
03.01.2023 17:52 7,4 C 6,7 C 3,9 C 87 % 1026,8 hPa 0,0 l/m 0 min 0 min 0 W/m 3,2 km/h (1 Bft) 95,74 %
03.01.2023 17:54 7,4 C 6,7 C 3,9 C 87 % 1026,9 hPa 0,0 l/m 0 min 0 min 0 W/m 6,4 km/h (2 Bft) 97,87 %
03.01.2023 17:56 7,4 C 6,7 C 3,9 C 88 % 1026,9 hPa 0,0 l/m 0 min 0 min 0 W/m 9,7 km/h (2 Bft) 95,74 %
03.01.2023 17:58 7,4 C 6,7 C 3,3 C 88 % 1026,8 hPa 0,0 l/m 0 min 0 min 0 W/m 9,7 km/h (2 Bft) 97,87 %
03.01.2023 18:00 7,4 C 6,7 C 3,3 C 88 % 1026,8 hPa 0,0 l/m 0 min 0 min 0 W/m 6,4 km/h (2 Bft) 97,83 %
03.01.2023 18:02 7,3 C 6,1 C 3,3 C 88 % 1026,8 hPa 0,0 l/m 0 min 0 min 0 W/m 3,2 km/h (1 Bft) 97,87 %
03.01.2023 18:04 7,3 C 6,1 C 3,3 C 88 % 1026,8 hPa 0,0 l/m 0 min 0 min 0 W/m 0,0 km/h (0 Bft) 95,74 %
03.01.2023 18:08 7,3 C 6,1 C 3,3 C 88 % 1026,8 hPa 0,0 l/m 0 min 0 min 0 W/m 12,9 km/h (3 Bft) 97,87 %
03.01.2023 18:10 7,3 C 6,1 C 3,3 C 88 % 1026,9 hPa 0,0 l/m 0 min 0 min 0 W/m 9,7 km/h (2 Bft) 97,83 %
03.01.2023 18:12 7,3 C 6,1 C 3,3 C 88 % 1026,8 hPa 0,0 l/m 0 min 0 min 0 W/m 6,4 km/h (2 Bft) 100,00 %
03.01.2023 18:14 7,3 C 6,1 C 3,3 C 88 % 1026,9 hPa 0,0 l/m 0 min 0 min 0 W/m 12,9 km/h (3 Bft) 97,87 %
03.01.2023 18:16 7,2 C 6,1 C 3,3 C 88 % 1026,8 hPa 0,0 l/m 0 min 0 min 0 W/m 6,4 km/h (2 Bft) 95,74 %
03.01.2023 18:18 7,2 C 6,1 C 3,3 C 88 % 1026,8 hPa 0,0 l/m 0 min 0 min 0 W/m 16,1 km/h (3 Bft) 97,87 %
03.01.2023 18:20 7,2 C 6,1 C 3,3 C 88 % 1026,8 hPa 0,0 l/m 0 min 0 min 0 W/m 6,4 km/h (2 Bft) 97,87 %
03.01.2023 18:22 7,2 C 6,1 C 3,3 C 88 % 1026,8 hPa 0,0 l/m 0 min 0 min 0 W/m 12,9 km/h (3 Bft) 93,48 %
03.01.2023 18:24 7,2 C 6,1 C 3,3 C 88 % 1026,8 hPa 0,0 l/m 0 min 0 min 0 W/m 3,2 km/h (1 Bft) 97,87 %
03.01.2023 18:26 7,2 C 6,1 C 3,3 C 88 % 1026,8 hPa 0,0 l/m 0 min 0 min 0 W/m 6,4 km/h (2 Bft) 95,74 %
03.01.2023 18:28 7,2 C 6,1 C 3,3 C 88 % 1026,8 hPa 0,0 l/m 0 min 0 min 0 W/m 6,4 km/h (2 Bft) 95,74 %
03.01.2023 18:30 7,2 C 6,1 C 3,3 C 88 % 1026,8 hPa 0,0 l/m 0 min 0 min 0 W/m 6,4 km/h (2 Bft) 97,87 %
03.01.2023 18:32 7,2 C 6,7 C 3,3 C 88 % 1026,8 hPa 0,0 l/m 0 min 0 min 0 W/m 9,7 km/h (2 Bft) 95,74 %
03.01.2023 18:34 7,2 C 6,7 C 3,3 C 88 % 1026,8 hPa 0,0 l/m 0 min 0 min 0 W/m 16,1 km/h (3 Bft) 95,65 %
03.01.2023 18:36 7,1 C 6,7 C 3,9 C 88 % 1026,7 hPa 0,0 l/m 0 min 0 min 0 W/m 6,4 km/h (2 Bft) 95,74 %
03.01.2023 18:38 7,1 C 6,7 C 3,9 C 88 % 1026,7 hPa 0,0 l/m 0 min 0 min 0 W/m 12,9 km/h (3 Bft) 97,87 %
03.01.2023 18:40 7,2 C 6,7 C 3,9 C 88 % 1026,7 hPa 0,0 l/m 0 min 0 min 0 W/m 16,1 km/h (3 Bft) 95,74 %
03.01.2023 18:42 7,2 C 6,7 C 3,9 C 88 % 1026,7 hPa 0,0 l/m 0 min 0 min 0 W/m 16,1 km/h (3 Bft) 95,74 %
03.01.2023 18:44 7,2 C 6,7 C 3,9 C 88 % 1026,7 hPa 0,0 l/m 0 min 0 min 0 W/m 16,1 km/h (3 Bft) 97,87 %
03.01.2023 18:46 7,2 C 6,7 C 3,9 C 88 % 1026,7 hPa 0,0 l/m 0 min 0 min 0 W/m 9,7 km/h (2 Bft) 100,00 %
03.01.2023 18:48 7,2 C 6,7 C 3,9 C 88 % 1026,7 hPa 0,0 l/m 0 min 0 min 0 W/m 6,4 km/h (2 Bft) 100,00 %
03.01.2023 18:50 7,2 C 6,7 C 3,9 C 88 % 1026,7 hPa 0,0 l/m 0 min 0 min 0 W/m 9,7 km/h (2 Bft) 100,00 %
03.01.2023 18:52 7,3 C 6,7 C 3,9 C 88 % 1026,7 hPa 0,0 l/m 0 min 0 min 0 W/m 16,1 km/h (3 Bft) 97,87 %
03.01.2023 18:54 7,3 C 6,7 C 3,9 C 88 % 1026,7 hPa 0,0 l/m 0 min 0 min 0 W/m 12,9 km/h (3 Bft) 100,00 %
03.01.2023 18:56 7,3 C 6,7 C 3,9 C 88 % 1026,7 hPa 0,0 l/m 0 min 0 min 0 W/m 19,3 km/h (3 Bft) 97,83 %
03.01.2023 18:58 7,3 C 6,7 C 3,9 C 88 % 1026,6 hPa 0,0 l/m 0 min 0 min 0 W/m 9,7 km/h (2 Bft) 97,87 %
03.01.2023 19:00 7,3 C 6,7 C 3,9 C 88 % 1026,7 hPa 0,0 l/m 0 min 0 min 0 W/m 12,9 km/h (3 Bft) 97,87 %
03.01.2023 19:02 7,3 C 6,7 C 3,9 C 88 % 1026,6 hPa 0,0 l/m 0 min 0 min 0 W/m 16,1 km/h (3 Bft) 95,74 %
03.01.2023 19:04 7,3 C 6,7 C 3,9 C 88 % 1026,6 hPa 0,0 l/m 0 min 0 min 0 W/m 12,9 km/h (3 Bft) 97,87 %
03.01.2023 19:06 7,3 C 6,7 C 3,9 C 88 % 1026,5 hPa 0,0 l/m 0 min 0 min 0 W/m 12,9 km/h (3 Bft) 97,87 %
03.01.2023 19:08 7,3 C 6,7 C 3,9 C 88 % 1026,5 hPa 0,0 l/m 0 min 0 min 0 W/m 19,3 km/h (3 Bft) 95,65 %
03.01.2023 19:10 7,3 C 6,7 C 3,9 C 88 % 1026,5 hPa 0,0 l/m 0 min 0 min 0 W/m 12,9 km/h (3 Bft) 97,87 %
03.01.2023 19:12 7,3 C 6,7 C 3,9 C 88 % 1026,6 hPa 0,0 l/m 0 min 0 min 0 W/m 12,9 km/h (3 Bft) 95,74 %
03.01.2023 19:14 7,3 C 6,7 C 3,9 C 88 % 1026,5 hPa 0,0 l/m 0 min 0 min 0 W/m 6,4 km/h (2 Bft) 97,87 %
03.01.2023 19:16 7,3 C 6,7 C 3,9 C 88 % 1026,5 hPa 0,0 l/m 0 min 0 min 0 W/m 19,3 km/h (3 Bft) 95,74 %
03.01.2023 19:18 7,3 C 6,7 C 3,9 C 87 % 1026,5 hPa 0,0 l/m 0 min 0 min 0 W/m 19,3 km/h (3 Bft) 97,87 %
03.01.2023 19:20 7,4 C 6,7 C 3,9 C 87 % 1026,5 hPa 0,0 l/m 0 min 0 min 0 W/m 22,5 km/h (4 Bft) 97,83 %
03.01.2023 19:22 7,4 C 6,7 C 3,9 C 87 % 1026,4 hPa 0,0 l/m 0 min 0 min 0 W/m 12,9 km/h (3 Bft) 95,74 %
03.01.2023 19:24 7,4 C 6,7 C 3,9 C 87 % 1026,4 hPa 0,0 l/m 0 min 0 min 0 W/m 16,1 km/h (3 Bft) 93,62 %
03.01.2023 19:26 7,4 C 6,7 C 3,9 C 87 % 1026,5 hPa 0,0 l/m 0 min 0 min 0 W/m 12,9 km/h (3 Bft) 97,87 %
03.01.2023 19:28 7,4 C 6,7 C 3,9 C 87 % 1026,4 hPa 0,0 l/m 0 min 0 min 0 W/m 6,4 km/h (2 Bft) 95,74 %
03.01.2023 19:30 7,4 C 6,7 C 3,9 C 87 % 1026,4 hPa 0,0 l/m 0 min 0 min 0 W/m 9,7 km/h (2 Bft) 97,87 %
03.01.2023 19:32 7,4 C 6,7 C 3,9 C 87 % 1026,4 hPa 0,0 l/m 0 min 0 min 0 W/m 12,9 km/h (3 Bft) 97,83 %
03.01.2023 19:34 7,4 C 6,7 C 3,9 C 87 % 1026,4 hPa 0,0 l/m 0 min 0 min 0 W/m 12,9 km/h (3 Bft) 97,87 %
03.01.2023 19:36 7,4 C 6,7 C 3,9 C 87 % 1026,3 hPa 0,0 l/m 0 min 0 min 0 W/m 12,9 km/h (3 Bft) 95,74 %
03.01.2023 19:38 7,4 C 6,7 C 3,9 C 87 % 1026,3 hPa 0,0 l/m 0 min 0 min 0 W/m 19,3 km/h (3 Bft) 97,87 %
03.01.2023 19:40 7,4 C 6,7 C 3,9 C 87 % 1026,3 hPa 0,0 l/m 0 min 0 min 0 W/m 19,3 km/h (3 Bft) 100,00 %
03.01.2023 19:42 7,4 C 6,7 C 3,9 C 87 % 1026,2 hPa 0,0 l/m 0 min 0 min 0 W/m 16,1 km/h (3 Bft) 93,62 %
03.01.2023 19:44 7,4 C 6,7 C 3,9 C 87 % 1026,2 hPa 0,0 l/m 0 min 0 min 0 W/m 19,3 km/h (3 Bft) 97,83 %
03.01.2023 19:46 7,4 C 6,7 C 3,9 C 87 % 1026,2 hPa 0,0 l/m 0 min 0 min 0 W/m 12,9 km/h (3 Bft) 95,74 %
03.01.2023 19:48 7,4 C 6,7 C 3,9 C 86 % 1026,2 hPa 0,0 l/m 0 min 0 min 0 W/m 16,1 km/h (3 Bft) 97,87 %
03.01.2023 19:50 7,4 C 6,7 C 3,9 C 86 % 1026,2 hPa 0,0 l/m 0 min 0 min 0 W/m 19,3 km/h (3 Bft) 100,00 %
03.01.2023 19:52 7,4 C 6,7 C 3,9 C 86 % 1026,2 hPa 0,0 l/m 0 min 0 min 0 W/m 22,5 km/h (4 Bft) 100,00 %
03.01.2023 19:54 7,5 C 6,7 C 3,9 C 86 % 1026,1 hPa 0,0 l/m 0 min 0 min 0 W/m 12,9 km/h (3 Bft) 97,87 %
03.01.2023 19:56 7,5 C 6,7 C 3,9 C 86 % 1026,2 hPa 0,0 l/m 0 min 0 min 0 W/m 12,9 km/h (3 Bft) 100,00 %
03.01.2023 19:58 7,5 C 6,7 C 3,9 C 86 % 1026,1 hPa 0,0 l/m 0 min 0 min 0 W/m 12,9 km/h (3 Bft) 100,00 %
03.01.2023 20:00 7,5 C 6,7 C 3,9 C 86 % 1026,1 hPa 0,0 l/m 0 min 0 min 0 W/m 16,1 km/h (3 Bft) 97,87 %
03.01.2023 20:02 7,5 C 6,7 C 3,9 C 86 % 1026,0 hPa 0,0 l/m 0 min 0 min 0 W/m 12,9 km/h (3 Bft) 100,00 %
03.01.2023 20:04 7,5 C 6,7 C 3,9 C 86 % 1026,0 hPa 0,0 l/m 0 min 0 min 0 W/m 19,3 km/h (3 Bft) 97,87 %
03.01.2023 20:06 7,5 C 6,7 C 3,9 C 86 % 1025,9 hPa 0,0 l/m 0 min 0 min 0 W/m 16,1 km/h (3 Bft) 97,87 %
03.01.2023 20:08 7,6 C 6,7 C 3,9 C 86 % 1025,9 hPa 0,0 l/m 0 min 0 min 0 W/m 16,1 km/h (3 Bft) 97,83 %
03.01.2023 20:10 7,6 C 6,7 C 3,9 C 86 % 1025,9 hPa 0,0 l/m 0 min 0 min 0 W/m 12,9 km/h (3 Bft) 97,87 %
03.01.2023 20:12 7,5 C 6,7 C 3,9 C 86 % 1025,8 hPa 0,0 l/m 0 min 0 min 0 W/m 16,1 km/h (3 Bft) 97,87 %
03.01.2023 20:14 7,5 C 6,7 C 3,9 C 86 % 1025,7 hPa 0,0 l/m 0 min 0 min 0 W/m 25,7 km/h (4 Bft) 97,87 %
03.01.2023 20:16 7,5 C 6,7 C 3,9 C 86 % 1025,6 hPa 0,0 l/m 0 min 0 min 0 W/m 22,5 km/h (4 Bft) 97,87 %
03.01.2023 20:18 7,5 C 6,7 C 3,9 C 86 % 1025,6 hPa 0,0 l/m 0 min 0 min 0 W/m 12,9 km/h (3 Bft) 97,87 %
03.01.2023 20:20 7,5 C 6,7 C 3,9 C 86 % 1025,6 hPa 0,0 l/m 0 min 0 min 0 W/m 22,5 km/h (4 Bft) 91,30 %
03.01.2023 20:22 7,5 C 6,7 C 3,9 C 86 % 1025,7 hPa 0,0 l/m 0 min 0 min 0 W/m 19,3 km/h (3 Bft) 95,74 %
03.01.2023 20:24 7,4 C 6,7 C 3,9 C 86 % 1025,6 hPa 0,0 l/m 0 min 0 min 0 W/m 16,1 km/h (3 Bft) 95,74 %
03.01.2023 20:26 7,4 C 6,7 C 3,9 C 86 % 1025,5 hPa 0,0 l/m 0 min 0 min 0 W/m 12,9 km/h (3 Bft) 91,49 %
03.01.2023 20:28 7,4 C 6,7 C 3,9 C 86 % 1025,5 hPa 0,0 l/m 0 min 0 min 0 W/m 12,9 km/h (3 Bft) 93,62 %
03.01.2023 20:30 7,4 C 6,7 C 3,9 C 86 % 1025,5 hPa 0,0 l/m 0 min 0 min 0 W/m 19,3 km/h (3 Bft) 93,62 %
03.01.2023 20:32 7,4 C 6,7 C 3,9 C 86 % 1025,5 hPa 0,0 l/m 0 min 0 min 0 W/m 12,9 km/h (3 Bft) 95,65 %
03.01.2023 20:34 7,4 C 6,7 C 3,9 C 86 % 1025,5 hPa 0,0 l/m 0 min 0 min 0 W/m 16,1 km/h (3 Bft) 95,74 %
03.01.2023 20:36 7,4 C 6,7 C 3,3 C 86 % 1025,5 hPa 0,0 l/m 0 min 0 min 0 W/m 12,9 km/h (3 Bft) 93,62 %
03.01.2023 20:38 7,4 C 6,7 C 3,3 C 86 % 1025,6 hPa 0,0 l/m 0 min 0 min 0 W/m 6,4 km/h (2 Bft) 93,62 %
03.01.2023 20:40 7,4 C 6,7 C 3,3 C 86 % 1025,6 hPa 0,0 l/m 0 min 0 min 0 W/m 9,7 km/h (2 Bft) 97,87 %
03.01.2023 20:42 7,3 C 6,1 C 3,3 C 86 % 1025,6 hPa 0,0 l/m 0 min 0 min 0 W/m 16,1 km/h (3 Bft) 95,74 %
03.01.2023 20:44 7,3 C 6,1 C 3,3 C 86 % 1025,6 hPa 0,0 l/m 0 min 0 min 0 W/m 12,9 km/h (3 Bft) 95,65 %
03.01.2023 20:46 7,3 C 6,1 C 3,3 C 86 % 1025,6 hPa 0,0 l/m 0 min 0 min 0 W/m 12,9 km/h (3 Bft) 97,87 %
03.01.2023 20:48 7,3 C 6,1 C 3,3 C 86 % 1025,6 hPa 0,0 l/m 0 min 0 min 0 W/m 12,9 km/h (3 Bft) 97,87 %
03.01.2023 20:50 7,2 C 6,1 C 3,3 C 86 % 1025,6 hPa 0,0 l/m 0 min 0 min 0 W/m 6,4 km/h (2 Bft) 97,87 %
03.01.2023 20:52 7,2 C 6,1 C 3,3 C 86 % 1025,6 hPa 0,0 l/m 0 min 0 min 0 W/m 6,4 km/h (2 Bft) 95,00 %
03.01.2023 20:54 7,2 C 6,1 C 3,3 C 86 % 1025,6 hPa 0,0 l/m 0 min 0 min 0 W/m 12,9 km/h (3 Bft) 97,87 %
03.01.2023 20:56 7,1 C 6,1 C 3,3 C 86 % 1025,6 hPa 0,0 l/m 0 min 0 min 0 W/m 12,9 km/h (3 Bft) 97,87 %
03.01.2023 20:58 7,1 C 6,1 C 3,3 C 86 % 1025,6 hPa 0,0 l/m 0 min 0 min 0 W/m 12,9 km/h (3 Bft) 97,87 %
03.01.2023 21:00 7,1 C 6,1 C 3,3 C 86 % 1025,5 hPa 0,0 l/m 0 min 0 min 0 W/m 12,9 km/h (3 Bft) 97,83 %
03.01.2023 21:02 7,0 C 6,1 C 2,8 C 86 % 1025,5 hPa 0,0 l/m 0 min 0 min 0 W/m 12,9 km/h (3 Bft) 97,87 %
03.01.2023 21:04 7,0 C 6,1 C 2,8 C 86 % 1025,6 hPa 0,0 l/m 0 min 0 min 0 W/m 9,7 km/h (2 Bft) 95,74 %
03.01.2023 21:06 6,9 C 5,6 C 2,8 C 87 % 1025,6 hPa 0,0 l/m 0 min 0 min 0 W/m 6,4 km/h (2 Bft) 97,87 %
03.01.2023 21:08 6,9 C 6,1 C 2,8 C 87 % 1025,6 hPa 0,0 l/m 0 min 0 min 0 W/m 9,7 km/h (2 Bft) 100,00 %
03.01.2023 21:10 6,9 C 5,6 C 2,8 C 87 % 1025,6 hPa 0,0 l/m 0 min 0 min 0 W/m 12,9 km/h (3 Bft) 97,87 %
03.01.2023 21:12 6,9 C 6,1 C 2,8 C 87 % 1025,6 hPa 0,0 l/m 0 min 0 min 0 W/m 6,4 km/h (2 Bft) 100,00 %
03.01.2023 21:14 6,8 C 6,1 C 2,8 C 87 % 1025,6 hPa 0,0 l/m 0 min 0 min 0 W/m 12,9 km/h (3 Bft) 100,00 %
03.01.2023 21:16 6,8 C 5,6 C 2,8 C 87 % 1025,5 hPa 0,0 l/m 0 min 0 min 0 W/m 6,4 km/h (2 Bft) 93,62 %
03.01.2023 21:18 6,8 C 5,6 C 2,8 C 87 % 1025,4 hPa 0,0 l/m 0 min 0 min 0 W/m 12,9 km/h (3 Bft) 97,87 %
03.01.2023 21:20 6,8 C 5,6 C 2,8 C 87 % 1025,3 hPa 0,0 l/m 0 min 0 min 0 W/m 12,9 km/h (3 Bft) 100,00 %
03.01.2023 21:22 6,7 C 5,6 C 2,8 C 87 % 1025,2 hPa 0,0 l/m 0 min 0 min 0 W/m 19,3 km/h (3 Bft) 97,87 %
03.01.2023 21:24 6,7 C 5,6 C 2,8 C 87 % 1025,2 hPa 0,0 l/m 0 min 0 min 0 W/m 12,9 km/h (3 Bft) 95,65 %
03.01.2023 21:26 6,7 C 5,6 C 2,8 C 87 % 1025,0 hPa 0,0 l/m 0 min 0 min 0 W/m 9,7 km/h (2 Bft) 97,87 %
03.01.2023 21:28 6,7 C 5,6 C 2,8 C 88 % 1025,0 hPa 0,0 l/m 0 min 0 min 0 W/m 12,9 km/h (3 Bft) 95,74 %
03.01.2023 21:30 6,7 C 5,6 C 2,8 C 87 % 1025,0 hPa 0,0 l/m 0 min 0 min 0 W/m 12,9 km/h (3 Bft) 97,87 %
03.01.2023 21:32 6,6 C 5,6 C 2,8 C 88 % 1025,1 hPa 0,0 l/m 0 min 0 min 0 W/m 12,9 km/h (3 Bft) 97,87 %
03.01.2023 21:34 6,6 C 5,6 C 2,8 C 88 % 1025,1 hPa 0,0 l/m 0 min 0 min 0 W/m 12,9 km/h (3 Bft) 97,83 %
03.01.2023 21:36 6,6 C 5,6 C 2,8 C 88 % 1025,1 hPa 0,0 l/m 0 min 0 min 0 W/m 12,9 km/h (3 Bft) 97,87 %
03.01.2023 21:38 6,6 C 5,6 C 2,8 C 88 % 1025,0 hPa 0,0 l/m 0 min 0 min 0 W/m 6,4 km/h (2 Bft) 95,74 %
03.01.2023 21:40 6,5 C 5,6 C 2,8 C 88 % 1024,9 hPa 0,0 l/m 0 min 0 min 0 W/m 12,9 km/h (3 Bft) 95,74 %
03.01.2023 21:42 6,5 C 5,6 C 2,8 C 88 % 1024,9 hPa 0,0 l/m 0 min 0 min 0 W/m 12,9 km/h (3 Bft) 97,87 %
03.01.2023 21:44 6,5 C 5,6 C 2,8 C 88 % 1024,8 hPa 0,0 l/m 0 min 0 min 0 W/m 16,1 km/h (3 Bft) 95,74 %
03.01.2023 21:46 6,5 C 5,6 C 2,8 C 88 % 1024,9 hPa 0,0 l/m 0 min 0 min 0 W/m 12,9 km/h (3 Bft) 97,87 %
03.01.2023 21:48 6,4 C 5,6 C 2,8 C 88 % 1024,8 hPa 0,0 l/m 0 min 0 min 0 W/m 12,9 km/h (3 Bft) 97,83 %
03.01.2023 21:50 6,4 C 5,6 C 2,8 C 88 % 1024,9 hPa 0,0 l/m 0 min 0 min 0 W/m 9,7 km/h (2 Bft) 97,87 %
03.01.2023 21:52 6,4 C 5,6 C 2,8 C 88 % 1024,8 hPa 0,0 l/m 0 min 0 min 0 W/m 6,4 km/h (2 Bft) 97,87 %
03.01.2023 21:54 6,4 C 5,6 C 2,8 C 88 % 1024,8 hPa 0,0 l/m 0 min 0 min 0 W/m 9,7 km/h (2 Bft) 97,87 %
03.01.2023 21:56 6,4 C 5,6 C 2,8 C 88 % 1024,8 hPa 0,0 l/m 0 min 0 min 0 W/m 16,1 km/h (3 Bft) 95,74 %
03.01.2023 21:58 6,3 C 5,6 C 2,8 C 88 % 1024,8 hPa 0,0 l/m 0 min 0 min 0 W/m 12,9 km/h (3 Bft) 93,62 %
03.01.2023 22:00 6,3 C 5,6 C 2,8 C 89 % 1024,7 hPa 0,0 l/m 0 min 0 min 0 W/m 12,9 km/h (3 Bft) 95,65 %
03.01.2023 22:02 6,3 C 5,6 C 2,8 C 89 % 1024,8 hPa 0,0 l/m 0 min 0 min 0 W/m 16,1 km/h (3 Bft) 95,74 %
03.01.2023 22:04 6,3 C 5,6 C 2,8 C 89 % 1024,8 hPa 0,0 l/m 0 min 0 min 0 W/m 16,1 km/h (3 Bft) 97,87 %
03.01.2023 22:06 6,3 C 5,6 C 2,8 C 89 % 1024,8 hPa 0,0 l/m 0 min 0 min 0 W/m 12,9 km/h (3 Bft) 97,87 %
03.01.2023 22:08 6,3 C 5,6 C 2,8 C 89 % 1024,8 hPa 0,0 l/m 0 min 0 min 0 W/m 6,4 km/h (2 Bft) 97,87 %
03.01.2023 22:10 6,3 C 5,6 C 2,8 C 89 % 1024,9 hPa 0,0 l/m 0 min 0 min 0 W/m 12,9 km/h (3 Bft) 97,83 %
03.01.2023 22:12 6,3 C 5,6 C 2,8 C 89 % 1024,9 hPa 0,0 l/m 0 min 0 min 0 W/m 12,9 km/h (3 Bft) 97,87 %
03.01.2023 22:14 6,3 C 5,6 C 2,8 C 89 % 1024,9 hPa 0,0 l/m 0 min 0 min 0 W/m 12,9 km/h (3 Bft) 91,49 %
03.01.2023 22:16 6,2 C 5,6 C 2,8 C 89 % 1024,8 hPa 0,0 l/m 0 min 0 min 0 W/m 16,1 km/h (3 Bft) 97,87 %
03.01.2023 22:18 6,3 C 5,6 C 2,8 C 89 % 1024,8 hPa 0,0 l/m 0 min 0 min 0 W/m 16,1 km/h (3 Bft) 97,87 %
03.01.2023 22:20 6,2 C 5,6 C 2,8 C 89 % 1024,8 hPa 0,0 l/m 0 min 0 min 0 W/m 12,9 km/h (3 Bft) 97,87 %
03.01.2023 22:22 6,2 C 5,6 C 2,8 C 89 % 1024,8 hPa 0,0 l/m 0 min 0 min 0 W/m 12,9 km/h (3 Bft) 97,83 %
03.01.2023 22:24 6,2 C 5,6 C 2,8 C 89 % 1024,7 hPa 0,0 l/m 0 min 0 min 0 W/m 12,9 km/h (3 Bft) 97,87 %
03.01.2023 22:26 6,2 C 5,6 C 2,8 C 89 % 1024,7 hPa 0,0 l/m 0 min 0 min 0 W/m 12,9 km/h (3 Bft) 95,74 %
03.01.2023 22:28 6,2 C 5,6 C 2,8 C 89 % 1024,7 hPa 0,0 l/m 0 min 0 min 0 W/m 12,9 km/h (3 Bft) 97,87 %
03.01.2023 22:30 6,2 C 5,6 C 2,8 C 89 % 1024,6 hPa 0,0 l/m 0 min 0 min 0 W/m 16,1 km/h (3 Bft) 100,00 %
03.01.2023 22:32 6,2 C 5,6 C 2,8 C 89 % 1024,5 hPa 0,0 l/m 0 min 0 min 0 W/m 12,9 km/h (3 Bft) 100,00 %
03.01.2023 22:34 6,2 C 5,6 C 2,8 C 89 % 1024,4 hPa 0,0 l/m 0 min 0 min 0 W/m 12,9 km/h (3 Bft) 97,83 %
03.01.2023 22:36 6,2 C 5,6 C 2,8 C 89 % 1024,4 hPa 0,0 l/m 0 min 0 min 0 W/m 19,3 km/h (3 Bft) 97,87 %
03.01.2023 22:38 6,3 C 5,6 C 2,8 C 90 % 1024,3 hPa 0,0 l/m 0 min 0 min 0 W/m 12,9 km/h (3 Bft) 100,00 %
03.01.2023 22:40 6,3 C 5,6 C 2,8 C 90 % 1024,3 hPa 0,0 l/m 0 min 0 min 0 W/m 12,9 km/h (3 Bft) 100,00 %
03.01.2023 22:42 6,3 C 5,6 C 2,8 C 90 % 1024,3 hPa 0,0 l/m 0 min 0 min 0 W/m 12,9 km/h (3 Bft) 100,00 %
03.01.2023 22:44 6,3 C 5,6 C 2,8 C 90 % 1024,3 hPa 0,0 l/m 0 min 0 min 0 W/m 12,9 km/h (3 Bft) 100,00 %
03.01.2023 22:46 6,3 C 5,6 C 2,8 C 90 % 1024,3 hPa 0,0 l/m 0 min 0 min 0 W/m 12,9 km/h (3 Bft) 97,83 %
03.01.2023 22:48 6,3 C 5,6 C 2,8 C 90 % 1024,3 hPa 0,0 l/m 0 min 0 min 0 W/m 12,9 km/h (3 Bft) 100,00 %
03.01.2023 22:50 6,4 C 5,6 C 2,8 C 90 % 1024,2 hPa 0,0 l/m 0 min 0 min 0 W/m 16,1 km/h (3 Bft) 100,00 %
03.01.2023 22:52 6,4 C 5,6 C 2,8 C 90 % 1024,1 hPa 0,0 l/m 0 min 0 min 0 W/m 19,3 km/h (3 Bft) 100,00 %
03.01.2023 22:54 6,4 C 5,6 C 2,8 C 90 % 1024,2 hPa 0,0 l/m 0 min 0 min 0 W/m 12,9 km/h (3 Bft) 100,00 %
03.01.2023 22:56 6,4 C 5,6 C 2,8 C 90 % 1024,2 hPa 0,0 l/m 0 min 0 min 0 W/m 12,9 km/h (3 Bft) 100,00 %
03.01.2023 22:58 6,4 C 5,6 C 2,8 C 90 % 1024,2 hPa 0,0 l/m 0 min 0 min 0 W/m 16,1 km/h (3 Bft) 100,00 %
03.01.2023 23:00 6,4 C 5,6 C 2,8 C 89 % 1024,2 hPa 0,0 l/m 0 min 0 min 0 W/m 12,9 km/h (3 Bft) 100,00 %
03.01.2023 23:02 6,4 C 5,6 C 2,8 C 89 % 1024,1 hPa 0,0 l/m 0 min 0 min 0 W/m 12,9 km/h (3 Bft) 100,00 %
03.01.2023 23:04 6,4 C 5,6 C 2,8 C 89 % 1024,1 hPa 0,0 l/m 0 min 0 min 0 W/m 12,9 km/h (3 Bft) 100,00 %
03.01.2023 23:06 6,4 C 5,6 C 2,8 C 89 % 1024,0 hPa 0,0 l/m 0 min 0 min 0 W/m 16,1 km/h (3 Bft) 100,00 %
03.01.2023 23:10 6,4 C 5,6 C 2,8 C 89 % 1023,9 hPa 0,0 l/m 0 min 0 min 0 W/m 6,4 km/h (2 Bft) 100,00 %
03.01.2023 23:12 6,4 C 5,6 C 2,8 C 89 % 1024,0 hPa 0,0 l/m 0 min 0 min 0 W/m 9,7 km/h (2 Bft) 91,43 %
03.01.2023 23:14 6,4 C 5,6 C 2,8 C 89 % 1024,0 hPa 0,0 l/m 0 min 0 min 0 W/m 9,7 km/h (2 Bft) 100,00 %
03.01.2023 23:16 6,4 C 5,6 C 2,8 C 89 % 1024,0 hPa 0,0 l/m 0 min 0 min 0 W/m 12,9 km/h (3 Bft) 100,00 %
03.01.2023 23:18 6,4 C 5,6 C 2,8 C 89 % 1024,0 hPa 0,0 l/m 0 min 0 min 0 W/m 16,1 km/h (3 Bft) 100,00 %
03.01.2023 23:20 6,5 C 5,6 C 2,8 C 89 % 1024,0 hPa 0,0 l/m 0 min 0 min 0 W/m 6,4 km/h (2 Bft) 100,00 %
03.01.2023 23:22 6,5 C 5,6 C 2,8 C 89 % 1024,0 hPa 0,0 l/m 0 min 0 min 0 W/m 12,9 km/h (3 Bft) 100,00 %
03.01.2023 23:24 6,5 C 6,1 C 2,8 C 89 % 1024,0 hPa 0,0 l/m 0 min 0 min 0 W/m 12,9 km/h (3 Bft) 97,87 %
03.01.2023 23:26 6,5 C 6,1 C 2,8 C 89 % 1024,0 hPa 0,0 l/m 0 min 0 min 0 W/m 12,9 km/h (3 Bft) 97,87 %
03.01.2023 23:28 6,5 C 6,1 C 2,8 C 89 % 1023,9 hPa 0,0 l/m 0 min 0 min 0 W/m 12,9 km/h (3 Bft) 97,83 %
03.01.2023 23:30 6,5 C 6,1 C 2,8 C 89 % 1024,0 hPa 0,0 l/m 0 min 0 min 0 W/m 12,9 km/h (3 Bft) 95,74 %
03.01.2023 23:32 6,6 C 6,1 C 2,8 C 89 % 1023,9 hPa 0,0 l/m 0 min 0 min 0 W/m 6,4 km/h (2 Bft) 97,87 %
03.01.2023 23:34 6,6 C 6,1 C 2,8 C 89 % 1023,9 hPa 0,0 l/m 0 min 0 min 0 W/m 6,4 km/h (2 Bft) 97,87 %
03.01.2023 23:36 6,6 C 6,1 C 2,8 C 89 % 1023,9 hPa 0,0 l/m 0 min 0 min 0 W/m 12,9 km/h (3 Bft) 95,74 %
03.01.2023 23:38 6,6 C 6,1 C 2,8 C 89 % 1023,9 hPa 0,0 l/m 0 min 0 min 0 W/m 16,1 km/h (3 Bft) 97,87 %
03.01.2023 23:40 6,6 C 6,1 C 2,8 C 89 % 1023,8 hPa 0,0 l/m 0 min 0 min 0 W/m 12,9 km/h (3 Bft) 95,74 %
03.01.2023 23:42 6,6 C 6,1 C 2,8 C 89 % 1023,8 hPa 0,0 l/m 0 min 0 min 0 W/m 16,1 km/h (3 Bft) 97,83 %
03.01.2023 23:44 6,6 C 6,1 C 3,3 C 89 % 1023,8 hPa 0,0 l/m 0 min 0 min 0 W/m 12,9 km/h (3 Bft) 97,87 %
03.01.2023 23:46 6,6 C 6,1 C 3,3 C 89 % 1023,9 hPa 0,0 l/m 0 min 0 min 0 W/m 12,9 km/h (3 Bft) 93,62 %
03.01.2023 23:48 6,6 C 6,1 C 3,3 C 89 % 1023,8 hPa 0,0 l/m 0 min 0 min 0 W/m 9,7 km/h (2 Bft) 95,74 %
03.01.2023 23:50 6,7 C 6,1 C 3,3 C 89 % 1023,8 hPa 0,0 l/m 0 min 0 min 0 W/m 16,1 km/h (3 Bft) 93,62 %
03.01.2023 23:52 6,7 C 6,1 C 3,3 C 89 % 1023,8 hPa 0,0 l/m 0 min 0 min 0 W/m 16,1 km/h (3 Bft) 93,62 %
03.01.2023 23:54 6,7 C 6,1 C 3,3 C 89 % 1023,8 hPa 0,0 l/m 0 min 0 min 0 W/m 12,9 km/h (3 Bft) 93,48 %
03.01.2023 23:56 6,7 C 6,1 C 3,3 C 89 % 1023,7 hPa 0,0 l/m 0 min 0 min 0 W/m 6,4 km/h (2 Bft) 93,62 %
03.01.2023 23:58 6,8 C 6,1 C 3,3 C 89 % 1023,7 hPa 0,0 l/m 0 min 0 min 0 W/m 12,9 km/h (3 Bft) 89,36 %
_ Min-Zeit 05:48 04:46 05:30 15:00 23:56 - - - - 00:00 04:44
Minimum _ 4,1 C 3,3 C 1,1 C 84 % 1023,7 hPa - - - - 0,0 km/h (0 Bft) 45,95 %
_ Max-Zeit 13:30 13:40 13:04 09:12 11:20 06:00 10:02 10:26 11:06 13:46 00:10
Maximum _ 9,6 C 10,6 C 6,7 C 98 % 1028,1 hPa 0,2 l/m 2 min 2 min 275 W/m 35,4 km/h
S-SW (5 Bft)
100,00 %
Durchschnitt _ 6,7 C 6,1 C 3,5 C 92 % 1026,7 hPa #0,2 l/m #46 min. #12 min. 67 W/m 9,6 km/h (2 Bft) 97,16 %
© 2023 W. Hausmann